<?xml version='1.0' encoding='UTF-8'?><gpx version="1.1" creator="JPX - https://github.com/jenetics/jpx" xmlns="http://www.topografix.com/GPX/1/1"><trk><trkseg><trkpt lat="43.8885188" lon="12.9036601"><ele>12.0</ele><time>2026-03-24T18:32:51.233Z</time></trkpt><trkpt lat="43.8885504" lon="12.9037486"><ele>12.0</ele><time>2026-03-24T18:32:55.238Z</time></trkpt><trkpt lat="43.8885382" lon="12.903857"><ele>12.0</ele><time>2026-03-24T18:32:59.24Z</time></trkpt><trkpt lat="43.88855" lon="12.9039654"><ele>12.0</ele><time>2026-03-24T18:33:03.246Z</time></trkpt><trkpt lat="43.8885897" lon="12.9040455"><ele>12.0</ele><time>2026-03-24T18:33:06.245Z</time></trkpt><trkpt lat="43.8886389" lon="12.9041174"><ele>12.0</ele><time>2026-03-24T18:33:09.24Z</time></trkpt><trkpt lat="43.8887002" lon="12.904192"><ele>12.166666666666666</ele><time>2026-03-24T18:33:12.247Z</time></trkpt><trkpt lat="43.8887599" lon="12.9042664"><ele>12.333333333333332</ele><time>2026-03-24T18:33:15.257Z</time></trkpt><trkpt lat="43.8888152" lon="12.904345"><ele>12.5</ele><time>2026-03-24T18:33:18.243Z</time></trkpt><trkpt lat="43.8888702" lon="12.9044334"><ele>12.666666666666666</ele><time>2026-03-24T18:33:21.248Z</time></trkpt><trkpt lat="43.888912" lon="12.9045359"><ele>12.833333333333332</ele><time>2026-03-24T18:33:24.246Z</time></trkpt><trkpt lat="43.8889432" lon="12.9046241"><ele>13.0</ele><time>2026-03-24T18:33:27.146Z</time></trkpt><trkpt lat="43.8889797" lon="12.9047234"><ele>12.999999999999998</ele><time>2026-03-24T18:33:30.051Z</time></trkpt><trkpt lat="43.8890155" lon="12.9048124"><ele>13.0</ele><time>2026-03-24T18:33:33.041Z</time></trkpt><trkpt lat="43.8890555" lon="12.9048931"><ele>13.0</ele><time>2026-03-24T18:33:36.04Z</time></trkpt><trkpt lat="43.8890945" lon="12.9049785"><ele>13.0</ele><time>2026-03-24T18:33:39.034Z</time></trkpt><trkpt lat="43.8891309" lon="12.9050626"><ele>12.999999999999998</ele><time>2026-03-24T18:33:42.037Z</time></trkpt><trkpt lat="43.88917" lon="12.9051543"><ele>13.0</ele><time>2026-03-24T18:33:45.037Z</time></trkpt><trkpt lat="43.889217" lon="12.9052553"><ele>12.666666666666666</ele><time>2026-03-24T18:33:49.034Z</time></trkpt><trkpt lat="43.8892597" lon="12.9053279"><ele>12.333333333333332</ele><time>2026-03-24T18:33:52.036Z</time></trkpt><trkpt lat="43.889312" lon="12.905413"><ele>12.0</ele><time>2026-03-24T18:33:56.033Z</time></trkpt><trkpt lat="43.8893566" lon="12.9054856"><ele>11.666666666666666</ele><time>2026-03-24T18:33:59.034Z</time></trkpt><trkpt lat="43.889413" lon="12.9055676"><ele>11.333333333333332</ele><time>2026-03-24T18:34:03.045Z</time></trkpt><trkpt lat="43.8894705" lon="12.9056383"><ele>11.0</ele><time>2026-03-24T18:34:07.039Z</time></trkpt><trkpt lat="43.8895201" lon="12.9057211"><ele>11.0</ele><time>2026-03-24T18:34:10.694Z</time></trkpt><trkpt lat="43.8895627" lon="12.9057921"><ele>11.0</ele><time>2026-03-24T18:34:13.692Z</time></trkpt><trkpt lat="43.8896006" lon="12.9058732"><ele>11.0</ele><time>2026-03-24T18:34:16.702Z</time></trkpt><trkpt lat="43.8896404" lon="12.9059473"><ele>11.0</ele><time>2026-03-24T18:34:19.689Z</time></trkpt><trkpt lat="43.8896789" lon="12.90602"><ele>11.0</ele><time>2026-03-24T18:34:22.698Z</time></trkpt><trkpt lat="43.8897176" lon="12.9060953"><ele>11.0</ele><time>2026-03-24T18:34:25.698Z</time></trkpt><trkpt lat="43.8897615" lon="12.9061655"><ele>11.0</ele><time>2026-03-24T18:34:28.695Z</time></trkpt><trkpt lat="43.8898008" lon="12.9062343"><ele>11.0</ele><time>2026-03-24T18:34:31.702Z</time></trkpt><trkpt lat="43.8898308" lon="12.9063276"><ele>11.0</ele><time>2026-03-24T18:34:35.686Z</time></trkpt><trkpt lat="43.8898243" lon="12.906431"><ele>11.0</ele><time>2026-03-24T18:34:39.699Z</time></trkpt><trkpt lat="43.8898543" lon="12.9065091"><ele>11.0</ele><time>2026-03-24T18:34:42.705Z</time></trkpt><trkpt lat="43.8898961" lon="12.9066065"><ele>11.0</ele><time>2026-03-24T18:34:45.697Z</time></trkpt><trkpt lat="43.88994" lon="12.9066866"><ele>11.0</ele><time>2026-03-24T18:34:48.689Z</time></trkpt><trkpt lat="43.8899969" lon="12.9067676"><ele>11.0</ele><time>2026-03-24T18:34:52.701Z</time></trkpt><trkpt lat="43.8900375" lon="12.906861"><ele>11.285714285714286</ele><time>2026-03-24T18:34:55.698Z</time></trkpt><trkpt lat="43.8900811" lon="12.9069392"><ele>11.571428571428571</ele><time>2026-03-24T18:34:58.68Z</time></trkpt><trkpt lat="43.8901153" lon="12.9070498"><ele>11.857142857142858</ele><time>2026-03-24T18:35:01.698Z</time></trkpt><trkpt lat="43.8901669" lon="12.9071286"><ele>12.142857142857142</ele><time>2026-03-24T18:35:05.695Z</time></trkpt><trkpt lat="43.8902266" lon="12.9071598"><ele>12.428571428571429</ele><time>2026-03-24T18:35:12.691Z</time></trkpt><trkpt lat="43.8902905" lon="12.9072336"><ele>12.714285714285714</ele><time>2026-03-24T18:35:16.695Z</time></trkpt><trkpt lat="43.8903067" lon="12.907324"><ele>13.0</ele><time>2026-03-24T18:35:19.706Z</time></trkpt><trkpt lat="43.8902797" lon="12.9074172"><ele>12.999999999999998</ele><time>2026-03-24T18:35:22.701Z</time></trkpt><trkpt lat="43.8902842" lon="12.9075333"><ele>13.0</ele><time>2026-03-24T18:35:26.706Z</time></trkpt><trkpt lat="43.8903093" lon="12.9076254"><ele>13.0</ele><time>2026-03-24T18:35:29.707Z</time></trkpt><trkpt lat="43.8903561" lon="12.9077159"><ele>13.0</ele><time>2026-03-24T18:35:32.707Z</time></trkpt><trkpt lat="43.8904189" lon="12.9077854"><ele>12.999999999999998</ele><time>2026-03-24T18:35:35.711Z</time></trkpt><trkpt lat="43.8904908" lon="12.9078261"><ele>13.0</ele><time>2026-03-24T18:35:38.704Z</time></trkpt><trkpt lat="43.8905725" lon="12.9078283"><ele>12.857142857142856</ele><time>2026-03-24T18:35:41.704Z</time></trkpt><trkpt lat="43.8906418" lon="12.9078584"><ele>12.714285714285715</ele><time>2026-03-24T18:35:44.714Z</time></trkpt><trkpt lat="43.8907103" lon="12.9078952"><ele>12.571428571428571</ele><time>2026-03-24T18:35:47.735Z</time></trkpt><trkpt lat="43.8907691" lon="12.9079461"><ele>12.428571428571427</ele><time>2026-03-24T18:35:50.71Z</time></trkpt><trkpt lat="43.8908286" lon="12.9079829"><ele>12.285714285714285</ele><time>2026-03-24T18:35:53.709Z</time></trkpt><trkpt lat="43.8908908" lon="12.9080182"><ele>12.142857142857142</ele><time>2026-03-24T18:35:56.71Z</time></trkpt><trkpt lat="43.8909731" lon="12.9080568"><ele>12.0</ele><time>2026-03-24T18:35:59.713Z</time></trkpt><trkpt lat="43.8910441" lon="12.9080808"><ele>11.857142857142856</ele><time>2026-03-24T18:36:02.705Z</time></trkpt><trkpt lat="43.8911129" lon="12.9081087"><ele>11.714285714285714</ele><time>2026-03-24T18:36:05.702Z</time></trkpt><trkpt lat="43.8911855" lon="12.9081336"><ele>11.571428571428571</ele><time>2026-03-24T18:36:08.705Z</time></trkpt><trkpt lat="43.8912648" lon="12.9081684"><ele>11.428571428571427</ele><time>2026-03-24T18:36:12.713Z</time></trkpt><trkpt lat="43.8913278" lon="12.9081788"><ele>11.285714285714285</ele><time>2026-03-24T18:36:15.695Z</time></trkpt><trkpt lat="43.8913943" lon="12.908206"><ele>11.142857142857142</ele><time>2026-03-24T18:36:18.733Z</time></trkpt><trkpt lat="43.8914673" lon="12.908239"><ele>11.0</ele><time>2026-03-24T18:36:21.709Z</time></trkpt><trkpt lat="43.8915502" lon="12.9082626"><ele>11.0</ele><time>2026-03-24T18:36:24.703Z</time></trkpt><trkpt lat="43.8916282" lon="12.9082422"><ele>11.0</ele><time>2026-03-24T18:36:27.709Z</time></trkpt><trkpt lat="43.8916901" lon="12.9081997"><ele>11.0</ele><time>2026-03-24T18:36:29.703Z</time></trkpt><trkpt lat="43.8917581" lon="12.9081177"><ele>11.0</ele><time>2026-03-24T18:36:32.699Z</time></trkpt><trkpt lat="43.8917889" lon="12.9080386"><ele>11.0</ele><time>2026-03-24T18:36:34.702Z</time></trkpt><trkpt lat="43.8917857" lon="12.9079302"><ele>11.0</ele><time>2026-03-24T18:36:37.702Z</time></trkpt><trkpt lat="43.8917967" lon="12.9078427"><ele>11.0</ele><time>2026-03-24T18:36:39.706Z</time></trkpt><trkpt lat="43.8918012" lon="12.9077322"><ele>11.166666666666666</ele><time>2026-03-24T18:36:42.703Z</time></trkpt><trkpt lat="43.8918111" lon="12.90764"><ele>11.333333333333332</ele><time>2026-03-24T18:36:45.697Z</time></trkpt><trkpt lat="43.8919241" lon="12.9076724"><ele>11.5</ele><time>2026-03-24T18:36:52.695Z</time></trkpt><trkpt lat="43.8919838" lon="12.9077237"><ele>11.666666666666666</ele><time>2026-03-24T18:36:53.692Z</time></trkpt><trkpt lat="43.8919879" lon="12.9078181"><ele>11.833333333333334</ele><time>2026-03-24T18:36:56.693Z</time></trkpt><trkpt lat="43.8920081" lon="12.9079121"><ele>12.0</ele><time>2026-03-24T18:37:00.695Z</time></trkpt><trkpt lat="43.8920744" lon="12.9079475"><ele>12.0</ele><time>2026-03-24T18:37:04.693Z</time></trkpt><trkpt lat="43.8921376" lon="12.9080132"><ele>12.0</ele><time>2026-03-24T18:37:07.689Z</time></trkpt><trkpt lat="43.8922148" lon="12.9080588"><ele>12.0</ele><time>2026-03-24T18:37:10.691Z</time></trkpt><trkpt lat="43.8922703" lon="12.9081233"><ele>12.0</ele><time>2026-03-24T18:37:13.686Z</time></trkpt><trkpt lat="43.8923494" lon="12.908136"><ele>12.0</ele><time>2026-03-24T18:37:16.692Z</time></trkpt><trkpt lat="43.8924251" lon="12.9081341"><ele>12.0</ele><time>2026-03-24T18:37:19.713Z</time></trkpt><trkpt lat="43.8924929" lon="12.9081586"><ele>12.0</ele><time>2026-03-24T18:37:22.684Z</time></trkpt><trkpt lat="43.8925734" lon="12.9081989"><ele>12.0</ele><time>2026-03-24T18:37:26.695Z</time></trkpt><trkpt lat="43.8926419" lon="12.9082522"><ele>12.0</ele><time>2026-03-24T18:37:29.7Z</time></trkpt><trkpt lat="43.8927087" lon="12.9082961"><ele>12.0</ele><time>2026-03-24T18:37:32.693Z</time></trkpt><trkpt lat="43.8927605" lon="12.9083479"><ele>12.0</ele><time>2026-03-24T18:37:35.692Z</time></trkpt><trkpt lat="43.8928345" lon="12.9083979"><ele>12.0</ele><time>2026-03-24T18:37:38.694Z</time></trkpt><trkpt lat="43.8929047" lon="12.9084385"><ele>11.5</ele><time>2026-03-24T18:37:41.694Z</time></trkpt><trkpt lat="43.8929741" lon="12.9084733"><ele>11.0</ele><time>2026-03-24T18:37:44.689Z</time></trkpt><trkpt lat="43.8930497" lon="12.9085011"><ele>10.5</ele><time>2026-03-24T18:37:48.687Z</time></trkpt><trkpt lat="43.8931201" lon="12.9085249"><ele>10.0</ele><time>2026-03-24T18:37:51.689Z</time></trkpt><trkpt lat="43.8931749" lon="12.9086011"><ele>9.5</ele><time>2026-03-24T18:37:55.69Z</time></trkpt><trkpt lat="43.8931473" lon="12.90871"><ele>9.0</ele><time>2026-03-24T18:37:59.695Z</time></trkpt><trkpt lat="43.893147" lon="12.9088085"><ele>9.0</ele><time>2026-03-24T18:38:02.701Z</time></trkpt><trkpt lat="43.8932087" lon="12.9088336"><ele>9.0</ele><time>2026-03-24T18:38:04.7Z</time></trkpt><trkpt lat="43.8932724" lon="12.9088472"><ele>9.0</ele><time>2026-03-24T18:38:06.704Z</time></trkpt><trkpt lat="43.8933505" lon="12.9088858"><ele>9.0</ele><time>2026-03-24T18:38:09.691Z</time></trkpt><trkpt lat="43.8934306" lon="12.908935"><ele>9.0</ele><time>2026-03-24T18:38:12.699Z</time></trkpt><trkpt lat="43.8935054" lon="12.9089913"><ele>9.0</ele><time>2026-03-24T18:38:15.706Z</time></trkpt><trkpt lat="43.8935704" lon="12.9090416"><ele>9.142857142857144</ele><time>2026-03-24T18:38:18.698Z</time></trkpt><trkpt lat="43.8936475" lon="12.9090798"><ele>9.285714285714286</ele><time>2026-03-24T18:38:21.707Z</time></trkpt><trkpt lat="43.8937161" lon="12.9091198"><ele>9.428571428571429</ele><time>2026-03-24T18:38:24.71Z</time></trkpt><trkpt lat="43.8937744" lon="12.9091579"><ele>9.571428571428573</ele><time>2026-03-24T18:38:27.701Z</time></trkpt><trkpt lat="43.8938374" lon="12.9092046"><ele>9.714285714285715</ele><time>2026-03-24T18:38:30.694Z</time></trkpt><trkpt lat="43.8939034" lon="12.9092477"><ele>9.857142857142858</ele><time>2026-03-24T18:38:33.707Z</time></trkpt><trkpt lat="43.8939702" lon="12.9092747"><ele>10.0</ele><time>2026-03-24T18:38:36.699Z</time></trkpt><trkpt lat="43.8940368" lon="12.9093245"><ele>10.0</ele><time>2026-03-24T18:38:39.703Z</time></trkpt><trkpt lat="43.8940923" lon="12.9093777"><ele>10.0</ele><time>2026-03-24T18:38:42.7Z</time></trkpt><trkpt lat="43.8941627" lon="12.9094324"><ele>10.0</ele><time>2026-03-24T18:38:45.7Z</time></trkpt><trkpt lat="43.8942262" lon="12.9094599"><ele>10.0</ele><time>2026-03-24T18:38:48.699Z</time></trkpt><trkpt lat="43.8942928" lon="12.9095104"><ele>10.0</ele><time>2026-03-24T18:38:51.704Z</time></trkpt><trkpt lat="43.8943602" lon="12.9095673"><ele>10.0</ele><time>2026-03-24T18:38:54.714Z</time></trkpt><trkpt lat="43.8944306" lon="12.9096085"><ele>10.0</ele><time>2026-03-24T18:38:57.702Z</time></trkpt><trkpt lat="43.8944952" lon="12.9096429"><ele>9.833333333333334</ele><time>2026-03-24T18:39:00.703Z</time></trkpt><trkpt lat="43.8945648" lon="12.9096789"><ele>9.666666666666668</ele><time>2026-03-24T18:39:03.689Z</time></trkpt><trkpt lat="43.8946341" lon="12.9097156"><ele>9.5</ele><time>2026-03-24T18:39:06.698Z</time></trkpt><trkpt lat="43.8947023" lon="12.9097524"><ele>9.333333333333334</ele><time>2026-03-24T18:39:09.704Z</time></trkpt><trkpt lat="43.8947748" lon="12.9097935"><ele>9.166666666666666</ele><time>2026-03-24T18:39:12.692Z</time></trkpt><trkpt lat="43.8948539" lon="12.9098337"><ele>9.0</ele><time>2026-03-24T18:39:15.697Z</time></trkpt><trkpt lat="43.8949228" lon="12.9098711"><ele>9.000000000000002</ele><time>2026-03-24T18:39:18.707Z</time></trkpt><trkpt lat="43.8949856" lon="12.9099198"><ele>9.0</ele><time>2026-03-24T18:39:21.713Z</time></trkpt><trkpt lat="43.8950481" lon="12.9099988"><ele>9.0</ele><time>2026-03-24T18:39:25.699Z</time></trkpt><trkpt lat="43.895109" lon="12.910025"><ele>9.0</ele><time>2026-03-24T18:39:28.699Z</time></trkpt><trkpt lat="43.8951759" lon="12.9100353"><ele>9.0</ele><time>2026-03-24T18:39:32.705Z</time></trkpt><trkpt lat="43.8952451" lon="12.9100691"><ele>9.000000000000002</ele><time>2026-03-24T18:39:35.695Z</time></trkpt><trkpt lat="43.8953288" lon="12.9101094"><ele>9.0</ele><time>2026-03-24T18:39:38.697Z</time></trkpt><trkpt lat="43.8954112" lon="12.9101595"><ele>8.833333333333334</ele><time>2026-03-24T18:39:41.699Z</time></trkpt><trkpt lat="43.8954852" lon="12.9101917"><ele>8.666666666666666</ele><time>2026-03-24T18:39:44.666Z</time></trkpt><trkpt lat="43.8955482" lon="12.9102052"><ele>8.5</ele><time>2026-03-24T18:39:47.646Z</time></trkpt><trkpt lat="43.8956573" lon="12.9102449"><ele>8.333333333333332</ele><time>2026-03-24T18:39:56.675Z</time></trkpt><trkpt lat="43.895736" lon="12.9102817"><ele>8.166666666666666</ele><time>2026-03-24T18:39:58.684Z</time></trkpt><trkpt lat="43.8958228" lon="12.9103545"><ele>8.0</ele><time>2026-03-24T18:40:00.677Z</time></trkpt><trkpt lat="43.8958631" lon="12.9104259"><ele>8.0</ele><time>2026-03-24T18:40:01.672Z</time></trkpt><trkpt lat="43.8959175" lon="12.9105056"><ele>7.999999999999999</ele><time>2026-03-24T18:40:02.651Z</time></trkpt><trkpt lat="43.89595" lon="12.9105839"><ele>8.0</ele><time>2026-03-24T18:40:03.664Z</time></trkpt><trkpt lat="43.8959833" lon="12.9107026"><ele>8.0</ele><time>2026-03-24T18:40:06.668Z</time></trkpt><trkpt lat="43.8960316" lon="12.9107605"><ele>7.999999999999999</ele><time>2026-03-24T18:40:11.68Z</time></trkpt><trkpt lat="43.8961017" lon="12.9107653"><ele>8.0</ele><time>2026-03-24T18:40:13.684Z</time></trkpt><trkpt lat="43.8961166" lon="12.910676"><ele>8.0</ele><time>2026-03-24T18:40:16.677Z</time></trkpt><trkpt lat="43.8961461" lon="12.9105643"><ele>8.0</ele><time>2026-03-24T18:40:20.671Z</time></trkpt><trkpt lat="43.8962363" lon="12.91058"><ele>8.0</ele><time>2026-03-24T18:40:23.689Z</time></trkpt><trkpt lat="43.8963452" lon="12.9106253"><ele>8.0</ele><time>2026-03-24T18:40:25.665Z</time></trkpt><trkpt lat="43.8964268" lon="12.9106641"><ele>8.0</ele><time>2026-03-24T18:40:28.664Z</time></trkpt><trkpt lat="43.896517" lon="12.9108129"><ele>8.0</ele><time>2026-03-24T18:40:30.658Z</time></trkpt><trkpt lat="43.8965603" lon="12.9108835"><ele>8.0</ele><time>2026-03-24T18:40:31.675Z</time></trkpt><trkpt lat="43.896656" lon="12.9108974"><ele>8.0</ele><time>2026-03-24T18:40:39.668Z</time></trkpt><trkpt lat="43.896753" lon="12.9109602"><ele>8.0</ele><time>2026-03-24T18:40:41.67Z</time></trkpt><trkpt lat="43.8967835" lon="12.9110534"><ele>8.0</ele><time>2026-03-24T18:40:46.681Z</time></trkpt><trkpt lat="43.8968103" lon="12.9111941"><ele>8.0</ele><time>2026-03-24T18:40:49.687Z</time></trkpt><trkpt lat="43.8968542" lon="12.9112904"><ele>8.166666666666666</ele><time>2026-03-24T18:40:51.67Z</time></trkpt><trkpt lat="43.8969046" lon="12.9113678"><ele>8.333333333333332</ele><time>2026-03-24T18:40:55.657Z</time></trkpt><trkpt lat="43.8969591" lon="12.9113189"><ele>8.5</ele><time>2026-03-24T18:40:57.663Z</time></trkpt><trkpt lat="43.8970512" lon="12.9113267"><ele>8.666666666666666</ele><time>2026-03-24T18:40:59.658Z</time></trkpt><trkpt lat="43.8971099" lon="12.9114353"><ele>8.833333333333334</ele><time>2026-03-24T18:41:01.679Z</time></trkpt><trkpt lat="43.8970966" lon="12.9115877"><ele>9.0</ele><time>2026-03-24T18:41:03.683Z</time></trkpt><trkpt lat="43.8971609" lon="12.9115754"><ele>9.0</ele><time>2026-03-24T18:41:09.675Z</time></trkpt><trkpt lat="43.8972873" lon="12.9116069"><ele>9.0</ele><time>2026-03-24T18:41:14.671Z</time></trkpt><trkpt lat="43.8973757" lon="12.911644"><ele>9.0</ele><time>2026-03-24T18:41:16.673Z</time></trkpt><trkpt lat="43.8974694" lon="12.911627"><ele>9.0</ele><time>2026-03-24T18:41:18.671Z</time></trkpt><trkpt lat="43.8975557" lon="12.9117026"><ele>9.0</ele><time>2026-03-24T18:41:23.682Z</time></trkpt><trkpt lat="43.8976535" lon="12.9117497"><ele>8.5</ele><time>2026-03-24T18:41:25.689Z</time></trkpt><trkpt lat="43.897716" lon="12.9117666"><ele>8.0</ele><time>2026-03-24T18:41:26.67Z</time></trkpt><trkpt lat="43.8978075" lon="12.9118089"><ele>7.5</ele><time>2026-03-24T18:41:31.659Z</time></trkpt><trkpt lat="43.8978465" lon="12.9118803"><ele>7.0</ele><time>2026-03-24T18:41:34.67Z</time></trkpt><trkpt lat="43.8979151" lon="12.9119296"><ele>6.5</ele><time>2026-03-24T18:41:39.677Z</time></trkpt><trkpt lat="43.8979338" lon="12.9120688"><ele>6.0</ele><time>2026-03-24T18:41:43.681Z</time></trkpt><trkpt lat="43.8980553" lon="12.9121076"><ele>6.0</ele><time>2026-03-24T18:41:47.672Z</time></trkpt><trkpt lat="43.8981165" lon="12.9120765"><ele>6.0</ele><time>2026-03-24T18:41:48.671Z</time></trkpt><trkpt lat="43.8981771" lon="12.9120394"><ele>6.0</ele><time>2026-03-24T18:41:50.682Z</time></trkpt><trkpt lat="43.8982843" lon="12.9120712"><ele>6.0</ele><time>2026-03-24T18:41:52.685Z</time></trkpt><trkpt lat="43.8983476" lon="12.9120847"><ele>6.0</ele><time>2026-03-24T18:41:53.677Z</time></trkpt><trkpt lat="43.8984419" lon="12.9121391"><ele>6.0</ele><time>2026-03-24T18:41:55.665Z</time></trkpt><trkpt lat="43.8985107" lon="12.9121679"><ele>6.166666666666667</ele><time>2026-03-24T18:41:57.674Z</time></trkpt><trkpt lat="43.8985738" lon="12.9122265"><ele>6.333333333333334</ele><time>2026-03-24T18:42:00.668Z</time></trkpt><trkpt lat="43.8985715" lon="12.9123167"><ele>6.5</ele><time>2026-03-24T18:42:04.67Z</time></trkpt><trkpt lat="43.8985294" lon="12.912392"><ele>6.666666666666667</ele><time>2026-03-24T18:42:07.67Z</time></trkpt><trkpt lat="43.8985906" lon="12.9124416"><ele>6.833333333333334</ele><time>2026-03-24T18:42:09.658Z</time></trkpt><trkpt lat="43.8986684" lon="12.9124615"><ele>7.0</ele><time>2026-03-24T18:42:10.664Z</time></trkpt><trkpt lat="43.8987714" lon="12.9124308"><ele>7.000000000000001</ele><time>2026-03-24T18:42:12.658Z</time></trkpt><trkpt lat="43.8988369" lon="12.9123793"><ele>7.0</ele><time>2026-03-24T18:42:14.665Z</time></trkpt><trkpt lat="43.8988997" lon="12.9123614"><ele>7.0</ele><time>2026-03-24T18:42:16.67Z</time></trkpt><trkpt lat="43.8989652" lon="12.9123752"><ele>7.0</ele><time>2026-03-24T18:42:18.67Z</time></trkpt><trkpt lat="43.899028" lon="12.9124396"><ele>7.000000000000001</ele><time>2026-03-24T18:42:21.692Z</time></trkpt><trkpt lat="43.8990979" lon="12.9125739"><ele>7.0</ele><time>2026-03-24T18:42:23.669Z</time></trkpt><trkpt lat="43.8991752" lon="12.9126101"><ele>7.0</ele><time>2026-03-24T18:42:26.667Z</time></trkpt><trkpt lat="43.8992372" lon="12.9125707"><ele>7.0</ele><time>2026-03-24T18:42:30.265Z</time></trkpt><trkpt lat="43.8993085" lon="12.9125653"><ele>7.0</ele><time>2026-03-24T18:42:32.965Z</time></trkpt><trkpt lat="43.8993699" lon="12.912591"><ele>7.0</ele><time>2026-03-24T18:42:34.766Z</time></trkpt><trkpt lat="43.899454" lon="12.9126245"><ele>7.0</ele><time>2026-03-24T18:42:37.676Z</time></trkpt><trkpt lat="43.8995195" lon="12.9126569"><ele>7.0</ele><time>2026-03-24T18:42:40.677Z</time></trkpt><trkpt lat="43.8995944" lon="12.9126942"><ele>7.0</ele><time>2026-03-24T18:42:44.678Z</time></trkpt><trkpt lat="43.8996407" lon="12.9127654"><ele>7.333333333333334</ele><time>2026-03-24T18:42:48.675Z</time></trkpt><trkpt lat="43.899682" lon="12.9128378"><ele>7.666666666666667</ele><time>2026-03-24T18:42:50.673Z</time></trkpt><trkpt lat="43.899761" lon="12.912866"><ele>8.0</ele><time>2026-03-24T18:42:53.681Z</time></trkpt><trkpt lat="43.899819" lon="12.9129211"><ele>8.333333333333334</ele><time>2026-03-24T18:42:55.692Z</time></trkpt><trkpt lat="43.8998942" lon="12.9129791"><ele>8.666666666666666</ele><time>2026-03-24T18:42:58.693Z</time></trkpt><trkpt lat="43.899971" lon="12.9130244"><ele>9.0</ele><time>2026-03-24T18:43:00.683Z</time></trkpt><trkpt lat="43.9000446" lon="12.91308"><ele>9.000000000000002</ele><time>2026-03-24T18:43:03.688Z</time></trkpt><trkpt lat="43.9001133" lon="12.9130959"><ele>9.0</ele><time>2026-03-24T18:43:05.674Z</time></trkpt><trkpt lat="43.9001939" lon="12.9131296"><ele>9.0</ele><time>2026-03-24T18:43:07.679Z</time></trkpt><trkpt lat="43.9002506" lon="12.913189"><ele>9.0</ele><time>2026-03-24T18:43:10.693Z</time></trkpt><trkpt lat="43.9003111" lon="12.9132233"><ele>9.0</ele><time>2026-03-24T18:43:13.685Z</time></trkpt><trkpt lat="43.9003736" lon="12.9132378"><ele>9.000000000000002</ele><time>2026-03-24T18:43:15.685Z</time></trkpt><trkpt lat="43.9004453" lon="12.9131964"><ele>9.0</ele><time>2026-03-24T18:43:17.681Z</time></trkpt><trkpt lat="43.9005017" lon="12.9131485"><ele>9.000000000000002</ele><time>2026-03-24T18:43:18.692Z</time></trkpt><trkpt lat="43.9005646" lon="12.9130419"><ele>9.0</ele><time>2026-03-24T18:43:20.689Z</time></trkpt><trkpt lat="43.9005794" lon="12.912948"><ele>9.0</ele><time>2026-03-24T18:43:22.691Z</time></trkpt><trkpt lat="43.900628" lon="12.9130059"><ele>9.0</ele><time>2026-03-24T18:43:26.66Z</time></trkpt><trkpt lat="43.9007006" lon="12.9130306"><ele>9.0</ele><time>2026-03-24T18:43:27.654Z</time></trkpt><trkpt lat="43.900766" lon="12.9130458"><ele>9.000000000000002</ele><time>2026-03-24T18:43:28.66Z</time></trkpt><trkpt lat="43.9008274" lon="12.9130779"><ele>9.0</ele><time>2026-03-24T18:43:30.661Z</time></trkpt><trkpt lat="43.9007705" lon="12.9131228"><ele>9.0</ele><time>2026-03-24T18:43:34.676Z</time></trkpt><trkpt lat="43.9007573" lon="12.9132148"><ele>9.0</ele><time>2026-03-24T18:43:41.667Z</time></trkpt><trkpt lat="43.9008327" lon="12.9132323"><ele>9.0</ele><time>2026-03-24T18:43:43.661Z</time></trkpt><trkpt lat="43.9009046" lon="12.9132886"><ele>9.0</ele><time>2026-03-24T18:43:46.677Z</time></trkpt><trkpt lat="43.9009807" lon="12.9133623"><ele>9.0</ele><time>2026-03-24T18:43:49.671Z</time></trkpt><trkpt lat="43.9010535" lon="12.9134196"><ele>9.0</ele><time>2026-03-24T18:43:54.668Z</time></trkpt><trkpt lat="43.9011153" lon="12.9134024"><ele>8.5</ele><time>2026-03-24T18:43:55.665Z</time></trkpt><trkpt lat="43.9012262" lon="12.913367"><ele>8.0</ele><time>2026-03-24T18:43:57.675Z</time></trkpt><trkpt lat="43.9013059" lon="12.9133918"><ele>7.5</ele><time>2026-03-24T18:43:59.697Z</time></trkpt><trkpt lat="43.90137" lon="12.9133752"><ele>7.0</ele><time>2026-03-24T18:44:01.674Z</time></trkpt><trkpt lat="43.9014232" lon="12.9133178"><ele>6.5</ele><time>2026-03-24T18:44:04.668Z</time></trkpt><trkpt lat="43.9014681" lon="12.9132328"><ele>6.0</ele><time>2026-03-24T18:44:07.673Z</time></trkpt><trkpt lat="43.9015212" lon="12.9131538"><ele>6.0</ele><time>2026-03-24T18:44:11.683Z</time></trkpt><trkpt lat="43.9015894" lon="12.913083"><ele>6.0</ele><time>2026-03-24T18:44:14.684Z</time></trkpt><trkpt lat="43.90167" lon="12.9130849"><ele>6.0</ele><time>2026-03-24T18:44:19.686Z</time></trkpt><trkpt lat="43.9017157" lon="12.913016"><ele>6.0</ele><time>2026-03-24T18:44:23.678Z</time></trkpt><trkpt lat="43.9017233" lon="12.9128879"><ele>6.0</ele><time>2026-03-24T18:44:25.663Z</time></trkpt><trkpt lat="43.901819" lon="12.9128434"><ele>6.0</ele><time>2026-03-24T18:44:29.677Z</time></trkpt><trkpt lat="43.9018921" lon="12.912833"><ele>6.0</ele><time>2026-03-24T18:44:33.666Z</time></trkpt><trkpt lat="43.9019498" lon="12.9127335"><ele>6.0</ele><time>2026-03-24T18:44:35.654Z</time></trkpt><trkpt lat="43.9020039" lon="12.912634"><ele>6.0</ele><time>2026-03-24T18:44:37.662Z</time></trkpt><trkpt lat="43.9020706" lon="12.9126061"><ele>6.0</ele><time>2026-03-24T18:44:38.665Z</time></trkpt><trkpt lat="43.9021464" lon="12.9126489"><ele>6.0</ele><time>2026-03-24T18:44:39.665Z</time></trkpt><trkpt lat="43.9022673" lon="12.9126769"><ele>6.0</ele><time>2026-03-24T18:44:41.677Z</time></trkpt><trkpt lat="43.9023308" lon="12.9126571"><ele>6.0</ele><time>2026-03-24T18:44:43.682Z</time></trkpt><trkpt lat="43.9023987" lon="12.9126249"><ele>6.0</ele><time>2026-03-24T18:44:46.682Z</time></trkpt><trkpt lat="43.9023795" lon="12.9125029"><ele>6.0</ele><time>2026-03-24T18:44:55.667Z</time></trkpt><trkpt lat="43.9024469" lon="12.9124707"><ele>6.0</ele><time>2026-03-24T18:44:57.669Z</time></trkpt><trkpt lat="43.9025503" lon="12.9124237"><ele>6.0</ele><time>2026-03-24T18:44:59.665Z</time></trkpt><trkpt lat="43.9026175" lon="12.912377"><ele>6.4</ele><time>2026-03-24T18:45:00.677Z</time></trkpt><trkpt lat="43.9026716" lon="12.9123255"><ele>6.8</ele><time>2026-03-24T18:45:03.678Z</time></trkpt><trkpt lat="43.9027159" lon="12.9122285"><ele>7.200000000000001</ele><time>2026-03-24T18:45:06.664Z</time></trkpt><trkpt lat="43.9028241" lon="12.9122183"><ele>7.6000000000000005</ele><time>2026-03-24T18:45:08.659Z</time></trkpt><trkpt lat="43.9028915" lon="12.9123047"><ele>8.0</ele><time>2026-03-24T18:45:09.663Z</time></trkpt><trkpt lat="43.9030002" lon="12.912222"><ele>7.999999999999999</ele><time>2026-03-24T18:45:12.662Z</time></trkpt><trkpt lat="43.9030543" lon="12.912112"><ele>8.0</ele><time>2026-03-24T18:45:14.664Z</time></trkpt><trkpt lat="43.9031175" lon="12.9120812"><ele>8.0</ele><time>2026-03-24T18:45:16.678Z</time></trkpt><trkpt lat="43.9031758" lon="12.9120032"><ele>8.0</ele><time>2026-03-24T18:45:24.677Z</time></trkpt><trkpt lat="43.9032457" lon="12.9119618"><ele>7.999999999999999</ele><time>2026-03-24T18:45:28.672Z</time></trkpt><trkpt lat="43.9033206" lon="12.9119256"><ele>8.0</ele><time>2026-03-24T18:45:31.669Z</time></trkpt><trkpt lat="43.9034075" lon="12.9118705"><ele>7.833333333333333</ele><time>2026-03-24T18:45:34.678Z</time></trkpt><trkpt lat="43.9034581" lon="12.9117964"><ele>7.666666666666666</ele><time>2026-03-24T18:45:40.667Z</time></trkpt><trkpt lat="43.9034868" lon="12.9117006"><ele>7.5</ele><time>2026-03-24T18:45:43.674Z</time></trkpt><trkpt lat="43.9035572" lon="12.9116949"><ele>7.333333333333334</ele><time>2026-03-24T18:45:45.67Z</time></trkpt><trkpt lat="43.9036472" lon="12.9117139"><ele>7.166666666666667</ele><time>2026-03-24T18:45:47.665Z</time></trkpt><trkpt lat="43.9037586" lon="12.9117305"><ele>7.0</ele><time>2026-03-24T18:45:50.68Z</time></trkpt><trkpt lat="43.9038832" lon="12.9117788"><ele>7.000000000000001</ele><time>2026-03-24T18:45:52.681Z</time></trkpt><trkpt lat="43.9039543" lon="12.9118016"><ele>7.0</ele><time>2026-03-24T18:45:54.665Z</time></trkpt><trkpt lat="43.9040225" lon="12.9117982"><ele>7.0</ele><time>2026-03-24T18:45:58.675Z</time></trkpt><trkpt lat="43.9040978" lon="12.911829"><ele>7.0</ele><time>2026-03-24T18:46:04.673Z</time></trkpt><trkpt lat="43.9041953" lon="12.9118197"><ele>7.000000000000001</ele><time>2026-03-24T18:46:06.675Z</time></trkpt><trkpt lat="43.9042494" lon="12.9118766"><ele>7.0</ele><time>2026-03-24T18:46:08.668Z</time></trkpt><trkpt lat="43.9043172" lon="12.9119303"><ele>7.0</ele><time>2026-03-24T18:46:13.673Z</time></trkpt><trkpt lat="43.9042921" lon="12.911836"><ele>6.999999999999999</ele><time>2026-03-24T18:46:15.689Z</time></trkpt><trkpt lat="43.9043521" lon="12.9116968"><ele>6.999999999999999</ele><time>2026-03-24T18:46:19.68Z</time></trkpt><trkpt lat="43.9044065" lon="12.9116143"><ele>7.0</ele><time>2026-03-24T18:46:20.67Z</time></trkpt><trkpt lat="43.9044567" lon="12.911491"><ele>7.0</ele><time>2026-03-24T18:46:23.69Z</time></trkpt><trkpt lat="43.9045125" lon="12.9113983"><ele>7.000000000000001</ele><time>2026-03-24T18:46:25.669Z</time></trkpt><trkpt lat="43.9045744" lon="12.9113239"><ele>7.0</ele><time>2026-03-24T18:46:27.656Z</time></trkpt><trkpt lat="43.9046288" lon="12.9112712"><ele>7.0</ele><time>2026-03-24T18:46:29.672Z</time></trkpt><trkpt lat="43.9046556" lon="12.9111477"><ele>7.0</ele><time>2026-03-24T18:46:32.677Z</time></trkpt><trkpt lat="43.9047067" lon="12.9110443"><ele>7.000000000000001</ele><time>2026-03-24T18:46:34.701Z</time></trkpt><trkpt lat="43.9046792" lon="12.9109237"><ele>7.0</ele><time>2026-03-24T18:46:38.665Z</time></trkpt><trkpt lat="43.9046729" lon="12.9107831"><ele>6.833333333333334</ele><time>2026-03-24T18:46:41.665Z</time></trkpt><trkpt lat="43.9046837" lon="12.910691"><ele>6.666666666666667</ele><time>2026-03-24T18:46:44.675Z</time></trkpt><trkpt lat="43.9047217" lon="12.9105984"><ele>6.5</ele><time>2026-03-24T18:46:49.663Z</time></trkpt><trkpt lat="43.9048389" lon="12.9106199"><ele>6.333333333333334</ele><time>2026-03-24T18:46:51.658Z</time></trkpt><trkpt lat="43.904848" lon="12.9105256"><ele>6.166666666666667</ele><time>2026-03-24T18:46:53.659Z</time></trkpt><trkpt lat="43.9049269" lon="12.910474"><ele>6.0</ele><time>2026-03-24T18:46:55.654Z</time></trkpt><trkpt lat="43.9049503" lon="12.9103845"><ele>6.0</ele><time>2026-03-24T18:46:59.655Z</time></trkpt><trkpt lat="43.9049316" lon="12.9102473"><ele>6.0</ele><time>2026-03-24T18:47:02.647Z</time></trkpt><trkpt lat="43.9049112" lon="12.910152"><ele>6.0</ele><time>2026-03-24T18:47:03.669Z</time></trkpt><trkpt lat="43.904886" lon="12.9100399"><ele>6.0</ele><time>2026-03-24T18:47:05.681Z</time></trkpt><trkpt lat="43.9048775" lon="12.9099459"><ele>6.0</ele><time>2026-03-24T18:47:06.663Z</time></trkpt><trkpt lat="43.9048592" lon="12.9098564"><ele>6.0</ele><time>2026-03-24T18:47:07.669Z</time></trkpt><trkpt lat="43.904868" lon="12.9097427"><ele>6.0</ele><time>2026-03-24T18:47:11.664Z</time></trkpt><trkpt lat="43.9049361" lon="12.9096495"><ele>6.0</ele><time>2026-03-24T18:47:18.667Z</time></trkpt><trkpt lat="43.9049875" lon="12.9095734"><ele>6.0</ele><time>2026-03-24T18:47:20.654Z</time></trkpt><trkpt lat="43.905031" lon="12.9095028"><ele>6.0</ele><time>2026-03-24T18:47:22.649Z</time></trkpt><trkpt lat="43.9050652" lon="12.9094278"><ele>6.0</ele><time>2026-03-24T18:47:23.653Z</time></trkpt><trkpt lat="43.9050921" lon="12.9093465"><ele>6.0</ele><time>2026-03-24T18:47:24.653Z</time></trkpt><trkpt lat="43.9051139" lon="12.9091944"><ele>6.833333333333333</ele><time>2026-03-24T18:47:27.549Z</time></trkpt><trkpt lat="43.9051025" lon="12.9090896"><ele>7.666666666666666</ele><time>2026-03-24T18:47:31.466Z</time></trkpt><trkpt lat="43.9051435" lon="12.9090057"><ele>8.5</ele><time>2026-03-24T18:47:37.438Z</time></trkpt><trkpt lat="43.9051636" lon="12.908914"><ele>9.333333333333332</ele><time>2026-03-24T18:47:40.445Z</time></trkpt><trkpt lat="43.9050991" lon="12.9088402"><ele>10.166666666666666</ele><time>2026-03-24T18:47:42.453Z</time></trkpt><trkpt lat="43.9051014" lon="12.9087361"><ele>11.0</ele><time>2026-03-24T18:47:45.454Z</time></trkpt><trkpt lat="43.9051854" lon="12.9086465"><ele>11.0</ele><time>2026-03-24T18:47:48.442Z</time></trkpt><trkpt lat="43.905132" lon="12.9085876"><ele>11.0</ele><time>2026-03-24T18:47:50.45Z</time></trkpt><trkpt lat="43.9051075" lon="12.9084592"><ele>11.0</ele><time>2026-03-24T18:47:54.456Z</time></trkpt><trkpt lat="43.9051407" lon="12.9083363"><ele>11.0</ele><time>2026-03-24T18:48:00.47Z</time></trkpt><trkpt lat="43.905185" lon="12.908237"><ele>11.0</ele><time>2026-03-24T18:48:02.466Z</time></trkpt><trkpt lat="43.9051898" lon="12.9081383"><ele>11.0</ele><time>2026-03-24T18:48:04.462Z</time></trkpt><trkpt lat="43.9052234" lon="12.9080071"><ele>11.166666666666666</ele><time>2026-03-24T18:48:06.452Z</time></trkpt><trkpt lat="43.9052543" lon="12.9079222"><ele>11.333333333333332</ele><time>2026-03-24T18:48:09.456Z</time></trkpt><trkpt lat="43.9053412" lon="12.9078583"><ele>11.5</ele><time>2026-03-24T18:48:11.467Z</time></trkpt><trkpt lat="43.9053735" lon="12.9077817"><ele>11.666666666666666</ele><time>2026-03-24T18:48:16.466Z</time></trkpt><trkpt lat="43.9054576" lon="12.907744"><ele>11.833333333333334</ele><time>2026-03-24T18:48:19.448Z</time></trkpt><trkpt lat="43.9054674" lon="12.9076414"><ele>12.0</ele><time>2026-03-24T18:48:22.462Z</time></trkpt><trkpt lat="43.9054931" lon="12.9075532"><ele>12.0</ele><time>2026-03-24T18:48:23.454Z</time></trkpt><trkpt lat="43.9055247" lon="12.9074747"><ele>12.0</ele><time>2026-03-24T18:48:24.458Z</time></trkpt><trkpt lat="43.9055306" lon="12.9073344"><ele>12.0</ele><time>2026-03-24T18:48:26.46Z</time></trkpt><trkpt lat="43.9055142" lon="12.9072344"><ele>12.0</ele><time>2026-03-24T18:48:28.456Z</time></trkpt><trkpt lat="43.9055411" lon="12.9071065"><ele>12.0</ele><time>2026-03-24T18:48:30.474Z</time></trkpt><trkpt lat="43.9055314" lon="12.9070191"><ele>12.0</ele><time>2026-03-24T18:48:32.465Z</time></trkpt><trkpt lat="43.9054623" lon="12.9069975"><ele>12.0</ele><time>2026-03-24T18:48:39.468Z</time></trkpt><trkpt lat="43.9053863" lon="12.9070105"><ele>12.0</ele><time>2026-03-24T18:48:41.457Z</time></trkpt><trkpt lat="43.9053801" lon="12.9069168"><ele>12.0</ele><time>2026-03-24T18:48:45.455Z</time></trkpt><trkpt lat="43.905395" lon="12.906803"><ele>12.0</ele><time>2026-03-24T18:48:47.442Z</time></trkpt><trkpt lat="43.9054427" lon="12.9066743"><ele>12.0</ele><time>2026-03-24T18:48:49.437Z</time></trkpt><trkpt lat="43.9054913" lon="12.9067837"><ele>12.0</ele><time>2026-03-24T18:48:52.43Z</time></trkpt><trkpt lat="43.9055834" lon="12.9068279"><ele>11.833333333333334</ele><time>2026-03-24T18:48:54.439Z</time></trkpt><trkpt lat="43.9056028" lon="12.9067093"><ele>11.666666666666666</ele><time>2026-03-24T18:48:57.455Z</time></trkpt><trkpt lat="43.905579" lon="12.9066245"><ele>11.5</ele><time>2026-03-24T18:48:58.474Z</time></trkpt><trkpt lat="43.9055358" lon="12.9065263"><ele>11.333333333333332</ele><time>2026-03-24T18:49:00.459Z</time></trkpt><trkpt lat="43.9054954" lon="12.9064537"><ele>11.166666666666666</ele><time>2026-03-24T18:49:04.459Z</time></trkpt><trkpt lat="43.9054247" lon="12.9063819"><ele>11.0</ele><time>2026-03-24T18:49:08.359Z</time></trkpt><trkpt lat="43.9053613" lon="12.9063094"><ele>11.0</ele><time>2026-03-24T18:49:10.347Z</time></trkpt><trkpt lat="43.9053095" lon="12.9062412"><ele>11.0</ele><time>2026-03-24T18:49:12.341Z</time></trkpt><trkpt lat="43.9052318" lon="12.9062078"><ele>11.0</ele><time>2026-03-24T18:49:13.329Z</time></trkpt><trkpt lat="43.9051581" lon="12.9061226"><ele>11.0</ele><time>2026-03-24T18:49:16.336Z</time></trkpt><trkpt lat="43.9051215" lon="12.9059648"><ele>11.0</ele><time>2026-03-24T18:49:18.35Z</time></trkpt><trkpt lat="43.9050533" lon="12.9058663"><ele>10.4</ele><time>2026-03-24T18:49:20.358Z</time></trkpt><trkpt lat="43.9049969" lon="12.9057677"><ele>9.8</ele><time>2026-03-24T18:49:22.362Z</time></trkpt><trkpt lat="43.9049441" lon="12.9057102"><ele>9.200000000000001</ele><time>2026-03-24T18:49:23.357Z</time></trkpt><trkpt lat="43.9048351" lon="12.9056138"><ele>8.600000000000001</ele><time>2026-03-24T18:49:25.362Z</time></trkpt><trkpt lat="43.9047564" lon="12.9055836"><ele>8.0</ele><time>2026-03-24T18:49:27.356Z</time></trkpt><trkpt lat="43.9046597" lon="12.9055246"><ele>7.999999999999999</ele><time>2026-03-24T18:49:29.382Z</time></trkpt><trkpt lat="43.9045892" lon="12.9054382"><ele>8.0</ele><time>2026-03-24T18:49:31.364Z</time></trkpt><trkpt lat="43.9045318" lon="12.9054836"><ele>8.0</ele><time>2026-03-24T18:49:43.352Z</time></trkpt><trkpt lat="43.9044978" lon="12.9054079"><ele>8.0</ele><time>2026-03-24T18:49:45.365Z</time></trkpt><trkpt lat="43.904444" lon="12.9053433"><ele>7.999999999999999</ele><time>2026-03-24T18:49:47.365Z</time></trkpt><trkpt lat="43.9043651" lon="12.9052767"><ele>8.0</ele><time>2026-03-24T18:49:50.363Z</time></trkpt><trkpt lat="43.9043134" lon="12.9052229"><ele>8.0</ele><time>2026-03-24T18:49:52.368Z</time></trkpt><trkpt lat="43.9042637" lon="12.9051491"><ele>7.999999999999999</ele><time>2026-03-24T18:49:54.367Z</time></trkpt><trkpt lat="43.9042157" lon="12.9050765"><ele>8.0</ele><time>2026-03-24T18:49:57.358Z</time></trkpt><trkpt lat="43.9041537" lon="12.9050146"><ele>8.0</ele><time>2026-03-24T18:50:00.373Z</time></trkpt><trkpt lat="43.904091" lon="12.9049362"><ele>7.999999999999999</ele><time>2026-03-24T18:50:03.388Z</time></trkpt><trkpt lat="43.9040475" lon="12.9048685"><ele>8.0</ele><time>2026-03-24T18:50:05.381Z</time></trkpt><trkpt lat="43.9039917" lon="12.9048033"><ele>8.0</ele><time>2026-03-24T18:50:07.367Z</time></trkpt><trkpt lat="43.9039129" lon="12.9047528"><ele>8.166666666666666</ele><time>2026-03-24T18:50:10.358Z</time></trkpt><trkpt lat="43.9038093" lon="12.9046862"><ele>8.333333333333332</ele><time>2026-03-24T18:50:14.36Z</time></trkpt><trkpt lat="43.9037484" lon="12.9046416"><ele>8.5</ele><time>2026-03-24T18:50:16.344Z</time></trkpt><trkpt lat="43.9036929" lon="12.9045951"><ele>8.666666666666666</ele><time>2026-03-24T18:50:18.335Z</time></trkpt><trkpt lat="43.9036747" lon="12.9044405"><ele>8.833333333333334</ele><time>2026-03-24T18:50:21.361Z</time></trkpt><trkpt lat="43.9036642" lon="12.9043469"><ele>9.0</ele><time>2026-03-24T18:50:23.355Z</time></trkpt><trkpt lat="43.9035962" lon="12.9042868"><ele>9.0</ele><time>2026-03-24T18:50:26.364Z</time></trkpt><trkpt lat="43.9035193" lon="12.9042255"><ele>9.0</ele><time>2026-03-24T18:50:29.364Z</time></trkpt><trkpt lat="43.9034559" lon="12.9041764"><ele>9.0</ele><time>2026-03-24T18:50:32.377Z</time></trkpt><trkpt lat="43.9033944" lon="12.9040738"><ele>9.0</ele><time>2026-03-24T18:50:35.369Z</time></trkpt><trkpt lat="43.9033792" lon="12.9039607"><ele>9.0</ele><time>2026-03-24T18:50:38.371Z</time></trkpt><trkpt lat="43.9033659" lon="12.9038414"><ele>9.0</ele><time>2026-03-24T18:50:41.387Z</time></trkpt><trkpt lat="43.9033174" lon="12.9037552"><ele>8.833333333333334</ele><time>2026-03-24T18:50:44.389Z</time></trkpt><trkpt lat="43.9032591" lon="12.9037209"><ele>8.666666666666666</ele><time>2026-03-24T18:50:46.382Z</time></trkpt><trkpt lat="43.9031917" lon="12.9036661"><ele>8.5</ele><time>2026-03-24T18:50:48.374Z</time></trkpt><trkpt lat="43.903121" lon="12.9035906"><ele>8.333333333333332</ele><time>2026-03-24T18:50:51.283Z</time></trkpt><trkpt lat="43.903068" lon="12.9035136"><ele>8.166666666666666</ele><time>2026-03-24T18:50:54.273Z</time></trkpt><trkpt lat="43.9030156" lon="12.9034141"><ele>8.0</ele><time>2026-03-24T18:50:57.282Z</time></trkpt><trkpt lat="43.9029735" lon="12.9033479"><ele>7.499999999999999</ele><time>2026-03-24T18:50:59.277Z</time></trkpt><trkpt lat="43.9029102" lon="12.9032839"><ele>7.0</ele><time>2026-03-24T18:51:02.294Z</time></trkpt><trkpt lat="43.9028532" lon="12.9032234"><ele>6.5</ele><time>2026-03-24T18:51:05.284Z</time></trkpt><trkpt lat="43.902788" lon="12.9031423"><ele>6.0</ele><time>2026-03-24T18:51:08.279Z</time></trkpt><trkpt lat="43.902724" lon="12.9030417"><ele>5.5</ele><time>2026-03-24T18:51:11.275Z</time></trkpt><trkpt lat="43.902665" lon="12.9029496"><ele>5.0</ele><time>2026-03-24T18:51:14.276Z</time></trkpt><trkpt lat="43.902604" lon="12.9028655"><ele>5.5</ele><time>2026-03-24T18:51:17.276Z</time></trkpt><trkpt lat="43.9025432" lon="12.9027643"><ele>6.0</ele><time>2026-03-24T18:51:19.26Z</time></trkpt><trkpt lat="43.9024995" lon="12.9026781"><ele>6.5</ele><time>2026-03-24T18:51:23.274Z</time></trkpt><trkpt lat="43.9024478" lon="12.9026221"><ele>7.0</ele><time>2026-03-24T18:51:26.284Z</time></trkpt><trkpt lat="43.902378" lon="12.9025409"><ele>7.499999999999999</ele><time>2026-03-24T18:51:29.26Z</time></trkpt><trkpt lat="43.9023304" lon="12.902473"><ele>8.0</ele><time>2026-03-24T18:51:31.267Z</time></trkpt><trkpt lat="43.9022739" lon="12.902381"><ele>7.999999999999999</ele><time>2026-03-24T18:51:34.281Z</time></trkpt><trkpt lat="43.902217" lon="12.9022993"><ele>8.0</ele><time>2026-03-24T18:51:37.269Z</time></trkpt><trkpt lat="43.9021453" lon="12.9022281"><ele>8.0</ele><time>2026-03-24T18:51:40.259Z</time></trkpt><trkpt lat="43.9020757" lon="12.9021743"><ele>8.0</ele><time>2026-03-24T18:51:42.258Z</time></trkpt><trkpt lat="43.9020247" lon="12.9021004"><ele>7.999999999999999</ele><time>2026-03-24T18:51:46.255Z</time></trkpt><trkpt lat="43.9019629" lon="12.9020072"><ele>8.0</ele><time>2026-03-24T18:51:49.272Z</time></trkpt><trkpt lat="43.9018985" lon="12.9019147"><ele>7.999999999999999</ele><time>2026-03-24T18:51:52.284Z</time></trkpt><trkpt lat="43.9018321" lon="12.9018472"><ele>8.0</ele><time>2026-03-24T18:51:55.286Z</time></trkpt><trkpt lat="43.9017681" lon="12.9017966"><ele>8.0</ele><time>2026-03-24T18:51:58.291Z</time></trkpt><trkpt lat="43.9017041" lon="12.9017122"><ele>8.0</ele><time>2026-03-24T18:52:01.274Z</time></trkpt><trkpt lat="43.9016418" lon="12.9016209"><ele>7.999999999999999</ele><time>2026-03-24T18:52:05.267Z</time></trkpt><trkpt lat="43.9015899" lon="12.9015629"><ele>8.0</ele><time>2026-03-24T18:52:07.286Z</time></trkpt><trkpt lat="43.90153" lon="12.9014864"><ele>7.833333333333333</ele><time>2026-03-24T18:52:09.987Z</time></trkpt><trkpt lat="43.9014653" lon="12.9014114"><ele>7.666666666666666</ele><time>2026-03-24T18:52:12.71Z</time></trkpt><trkpt lat="43.9014174" lon="12.901312"><ele>7.5</ele><time>2026-03-24T18:52:15.684Z</time></trkpt><trkpt lat="43.9013759" lon="12.9012029"><ele>7.333333333333334</ele><time>2026-03-24T18:52:18.709Z</time></trkpt><trkpt lat="43.9013345" lon="12.9011001"><ele>7.166666666666667</ele><time>2026-03-24T18:52:21.707Z</time></trkpt><trkpt lat="43.9012799" lon="12.9009929"><ele>7.0</ele><time>2026-03-24T18:52:24.696Z</time></trkpt><trkpt lat="43.9012396" lon="12.9008917"><ele>7.500000000000001</ele><time>2026-03-24T18:52:27.696Z</time></trkpt><trkpt lat="43.90125" lon="12.9007669"><ele>8.0</ele><time>2026-03-24T18:52:30.696Z</time></trkpt><trkpt lat="43.9012529" lon="12.900647"><ele>8.5</ele><time>2026-03-24T18:52:33.673Z</time></trkpt><trkpt lat="43.9012212" lon="12.9005689"><ele>9.0</ele><time>2026-03-24T18:52:35.674Z</time></trkpt><trkpt lat="43.9011781" lon="12.9004798"><ele>9.5</ele><time>2026-03-24T18:52:37.68Z</time></trkpt><trkpt lat="43.9011578" lon="12.9003526"><ele>10.0</ele><time>2026-03-24T18:52:40.682Z</time></trkpt><trkpt lat="43.9011607" lon="12.9002359"><ele>10.0</ele><time>2026-03-24T18:52:43.692Z</time></trkpt><trkpt lat="43.9011871" lon="12.9001564"><ele>10.0</ele><time>2026-03-24T18:52:45.697Z</time></trkpt><trkpt lat="43.9012431" lon="12.9000558"><ele>10.0</ele><time>2026-03-24T18:52:48.685Z</time></trkpt><trkpt lat="43.9012947" lon="12.9000003"><ele>10.0</ele><time>2026-03-24T18:52:50.687Z</time></trkpt><trkpt lat="43.9013645" lon="12.8999253"><ele>10.0</ele><time>2026-03-24T18:52:53.697Z</time></trkpt><trkpt lat="43.9014126" lon="12.8998665"><ele>10.0</ele><time>2026-03-24T18:52:55.685Z</time></trkpt><trkpt lat="43.9014604" lon="12.8998049"><ele>10.0</ele><time>2026-03-24T18:52:57.694Z</time></trkpt><trkpt lat="43.9015077" lon="12.8997408"><ele>9.833333333333334</ele><time>2026-03-24T18:52:59.693Z</time></trkpt><trkpt lat="43.9015684" lon="12.8996497"><ele>9.666666666666668</ele><time>2026-03-24T18:53:02.687Z</time></trkpt><trkpt lat="43.9015974" lon="12.8995327"><ele>9.5</ele><time>2026-03-24T18:53:05.689Z</time></trkpt><trkpt lat="43.9016445" lon="12.8994506"><ele>9.333333333333334</ele><time>2026-03-24T18:53:07.69Z</time></trkpt><trkpt lat="43.9016961" lon="12.8993783"><ele>9.166666666666666</ele><time>2026-03-24T18:53:09.698Z</time></trkpt><trkpt lat="43.9017619" lon="12.8992882"><ele>9.0</ele><time>2026-03-24T18:53:12.681Z</time></trkpt><trkpt lat="43.9018024" lon="12.8992117"><ele>9.000000000000002</ele><time>2026-03-24T18:53:14.679Z</time></trkpt><trkpt lat="43.9018576" lon="12.8991425"><ele>9.0</ele><time>2026-03-24T18:53:16.688Z</time></trkpt><trkpt lat="43.9019014" lon="12.8990306"><ele>9.0</ele><time>2026-03-24T18:53:19.679Z</time></trkpt><trkpt lat="43.9019483" lon="12.898952"><ele>9.0</ele><time>2026-03-24T18:53:22.676Z</time></trkpt><trkpt lat="43.9020045" lon="12.8988728"><ele>9.0</ele><time>2026-03-24T18:53:25.676Z</time></trkpt><trkpt lat="43.9020481" lon="12.8988094"><ele>9.000000000000002</ele><time>2026-03-24T18:53:27.677Z</time></trkpt><trkpt lat="43.902091" lon="12.8987389"><ele>9.0</ele><time>2026-03-24T18:53:29.679Z</time></trkpt><trkpt lat="43.9021316" lon="12.898668"><ele>9.0</ele><time>2026-03-24T18:53:31.679Z</time></trkpt><trkpt lat="43.9021878" lon="12.8985796"><ele>9.0</ele><time>2026-03-24T18:53:34.695Z</time></trkpt><trkpt lat="43.9022501" lon="12.898486"><ele>9.0</ele><time>2026-03-24T18:53:37.673Z</time></trkpt><trkpt lat="43.9023081" lon="12.8984026"><ele>9.0</ele><time>2026-03-24T18:53:40.684Z</time></trkpt><trkpt lat="43.9023718" lon="12.8983425"><ele>9.0</ele><time>2026-03-24T18:53:43.679Z</time></trkpt><trkpt lat="43.9024432" lon="12.898282"><ele>9.0</ele><time>2026-03-24T18:53:46.678Z</time></trkpt><trkpt lat="43.9024966" lon="12.8982161"><ele>9.0</ele><time>2026-03-24T18:53:49.678Z</time></trkpt><trkpt lat="43.9025471" lon="12.8981335"><ele>9.0</ele><time>2026-03-24T18:53:52.68Z</time></trkpt><trkpt lat="43.902627" lon="12.8980553"><ele>9.0</ele><time>2026-03-24T18:53:55.677Z</time></trkpt><trkpt lat="43.9026795" lon="12.8980035"><ele>9.0</ele><time>2026-03-24T18:53:57.683Z</time></trkpt><trkpt lat="43.9027329" lon="12.8979358"><ele>9.0</ele><time>2026-03-24T18:54:00.679Z</time></trkpt><trkpt lat="43.9027794" lon="12.8978588"><ele>9.0</ele><time>2026-03-24T18:54:03.683Z</time></trkpt><trkpt lat="43.9028511" lon="12.897773"><ele>8.714285714285715</ele><time>2026-03-24T18:54:06.683Z</time></trkpt><trkpt lat="43.9029029" lon="12.8976977"><ele>8.428571428571429</ele><time>2026-03-24T18:54:09.683Z</time></trkpt><trkpt lat="43.90295" lon="12.8976278"><ele>8.142857142857142</ele><time>2026-03-24T18:54:12.687Z</time></trkpt><trkpt lat="43.9030087" lon="12.897565"><ele>7.857142857142858</ele><time>2026-03-24T18:54:15.689Z</time></trkpt><trkpt lat="43.9030662" lon="12.8974996"><ele>7.571428571428571</ele><time>2026-03-24T18:54:18.7Z</time></trkpt><trkpt lat="43.9031258" lon="12.8974101"><ele>7.285714285714286</ele><time>2026-03-24T18:54:21.694Z</time></trkpt><trkpt lat="43.9031737" lon="12.8973514"><ele>7.0</ele><time>2026-03-24T18:54:23.686Z</time></trkpt><trkpt lat="43.9032293" lon="12.8972587"><ele>7.000000000000001</ele><time>2026-03-24T18:54:26.696Z</time></trkpt><trkpt lat="43.903291" lon="12.8971597"><ele>7.0</ele><time>2026-03-24T18:54:29.693Z</time></trkpt><trkpt lat="43.9033586" lon="12.8970698"><ele>7.0</ele><time>2026-03-24T18:54:32.689Z</time></trkpt><trkpt lat="43.9034208" lon="12.8969823"><ele>7.0</ele><time>2026-03-24T18:54:35.685Z</time></trkpt><trkpt lat="43.9034803" lon="12.8968981"><ele>7.000000000000001</ele><time>2026-03-24T18:54:38.693Z</time></trkpt><trkpt lat="43.9035254" lon="12.8968361"><ele>7.0</ele><time>2026-03-24T18:54:40.686Z</time></trkpt><trkpt lat="43.9035876" lon="12.8967502"><ele>7.000000000000001</ele><time>2026-03-24T18:54:43.694Z</time></trkpt><trkpt lat="43.9036377" lon="12.8966611"><ele>7.0</ele><time>2026-03-24T18:54:46.699Z</time></trkpt><trkpt lat="43.903697" lon="12.8965855"><ele>7.0</ele><time>2026-03-24T18:54:49.704Z</time></trkpt><trkpt lat="43.9037337" lon="12.8965062"><ele>7.0</ele><time>2026-03-24T18:54:52.673Z</time></trkpt><trkpt lat="43.9037819" lon="12.8964488"><ele>7.000000000000001</ele><time>2026-03-24T18:54:56.671Z</time></trkpt><trkpt lat="43.9038139" lon="12.896342"><ele>7.0</ele><time>2026-03-24T18:55:00.652Z</time></trkpt><trkpt lat="43.9037531" lon="12.8962646"><ele>7.000000000000001</ele><time>2026-03-24T18:55:03.675Z</time></trkpt><trkpt lat="43.9037134" lon="12.8961674"><ele>7.0</ele><time>2026-03-24T18:55:06.687Z</time></trkpt><trkpt lat="43.903676" lon="12.8960873"><ele>7.0</ele><time>2026-03-24T18:55:08.684Z</time></trkpt><trkpt lat="43.9036287" lon="12.8960216"><ele>7.0</ele><time>2026-03-24T18:55:10.692Z</time></trkpt><trkpt lat="43.903548" lon="12.895939"><ele>7.000000000000001</ele><time>2026-03-24T18:55:13.686Z</time></trkpt><trkpt lat="43.9034827" lon="12.895886"><ele>7.0</ele><time>2026-03-24T18:55:15.685Z</time></trkpt><trkpt lat="43.9034264" lon="12.8958403"><ele>6.666666666666667</ele><time>2026-03-24T18:55:17.685Z</time></trkpt><trkpt lat="43.9033664" lon="12.8957691"><ele>6.333333333333334</ele><time>2026-03-24T18:55:20.7Z</time></trkpt><trkpt lat="43.9033099" lon="12.8956955"><ele>6.0</ele><time>2026-03-24T18:55:23.695Z</time></trkpt><trkpt lat="43.9032544" lon="12.8956185"><ele>5.666666666666667</ele><time>2026-03-24T18:55:26.694Z</time></trkpt><trkpt lat="43.9031901" lon="12.8955237"><ele>5.333333333333334</ele><time>2026-03-24T18:55:29.693Z</time></trkpt><trkpt lat="43.9031186" lon="12.8954458"><ele>5.0</ele><time>2026-03-24T18:55:32.7Z</time></trkpt><trkpt lat="43.9030695" lon="12.8953663"><ele>5.0</ele><time>2026-03-24T18:55:35.691Z</time></trkpt><trkpt lat="43.9030204" lon="12.8953056"><ele>5.0</ele><time>2026-03-24T18:55:38.704Z</time></trkpt><trkpt lat="43.9029571" lon="12.8952269"><ele>5.0</ele><time>2026-03-24T18:55:41.699Z</time></trkpt><trkpt lat="43.9028924" lon="12.89515"><ele>5.0</ele><time>2026-03-24T18:55:44.707Z</time></trkpt><trkpt lat="43.9028379" lon="12.8950745"><ele>5.0</ele><time>2026-03-24T18:55:47.691Z</time></trkpt><trkpt lat="43.9027796" lon="12.894984"><ele>5.0</ele><time>2026-03-24T18:55:50.688Z</time></trkpt><trkpt lat="43.9027248" lon="12.894903"><ele>4.833333333333334</ele><time>2026-03-24T18:55:52.685Z</time></trkpt><trkpt lat="43.9026767" lon="12.894821"><ele>4.666666666666667</ele><time>2026-03-24T18:55:54.693Z</time></trkpt><trkpt lat="43.9026063" lon="12.8947392"><ele>4.5</ele><time>2026-03-24T18:55:57.685Z</time></trkpt><trkpt lat="43.9025447" lon="12.8946867"><ele>4.333333333333333</ele><time>2026-03-24T18:56:00.678Z</time></trkpt><trkpt lat="43.9024817" lon="12.8946196"><ele>4.166666666666666</ele><time>2026-03-24T18:56:04.702Z</time></trkpt><trkpt lat="43.9024314" lon="12.8945569"><ele>4.0</ele><time>2026-03-24T18:56:08.693Z</time></trkpt><trkpt lat="43.9023826" lon="12.8944719"><ele>3.9999999999999996</ele><time>2026-03-24T18:56:11.694Z</time></trkpt><trkpt lat="43.9023227" lon="12.8943714"><ele>4.0</ele><time>2026-03-24T18:56:14.689Z</time></trkpt><trkpt lat="43.9022774" lon="12.8943105"><ele>4.0</ele><time>2026-03-24T18:56:16.705Z</time></trkpt><trkpt lat="43.9022188" lon="12.8942278"><ele>4.0</ele><time>2026-03-24T18:56:19.711Z</time></trkpt><trkpt lat="43.9021581" lon="12.8941416"><ele>3.9999999999999996</ele><time>2026-03-24T18:56:22.72Z</time></trkpt><trkpt lat="43.9021369" lon="12.8940433"><ele>4.0</ele><time>2026-03-24T18:56:25.691Z</time></trkpt><trkpt lat="43.9022022" lon="12.8939522"><ele>3.9999999999999996</ele><time>2026-03-24T18:56:28.696Z</time></trkpt><trkpt lat="43.9022472" lon="12.8938758"><ele>4.0</ele><time>2026-03-24T18:56:31.695Z</time></trkpt><trkpt lat="43.9021837" lon="12.8937951"><ele>4.0</ele><time>2026-03-24T18:56:34.712Z</time></trkpt><trkpt lat="43.9021148" lon="12.8937221"><ele>4.0</ele><time>2026-03-24T18:56:37.698Z</time></trkpt><trkpt lat="43.9020386" lon="12.8937452"><ele>3.9999999999999996</ele><time>2026-03-24T18:56:41.7Z</time></trkpt><trkpt lat="43.9019573" lon="12.8937782"><ele>4.0</ele><time>2026-03-24T18:56:44.695Z</time></trkpt><trkpt lat="43.9018865" lon="12.8937767"><ele>3.9999999999999996</ele><time>2026-03-24T18:56:47.694Z</time></trkpt><trkpt lat="43.9018117" lon="12.8937097"><ele>4.0</ele><time>2026-03-24T18:56:50.695Z</time></trkpt><trkpt lat="43.9017666" lon="12.8936458"><ele>4.0</ele><time>2026-03-24T18:56:52.697Z</time></trkpt><trkpt lat="43.9017051" lon="12.8935498"><ele>4.0</ele><time>2026-03-24T18:56:55.693Z</time></trkpt><trkpt lat="43.9016643" lon="12.8934805"><ele>3.9999999999999996</ele><time>2026-03-24T18:56:57.703Z</time></trkpt><trkpt lat="43.9016128" lon="12.8934134"><ele>4.0</ele><time>2026-03-24T18:57:00.7Z</time></trkpt><trkpt lat="43.9015517" lon="12.8933455"><ele>4.333333333333333</ele><time>2026-03-24T18:57:03.702Z</time></trkpt><trkpt lat="43.9014784" lon="12.8932781"><ele>4.666666666666666</ele><time>2026-03-24T18:57:06.701Z</time></trkpt><trkpt lat="43.9014048" lon="12.8932269"><ele>5.0</ele><time>2026-03-24T18:57:09.701Z</time></trkpt><trkpt lat="43.9013421" lon="12.8931901"><ele>5.333333333333333</ele><time>2026-03-24T18:57:12.698Z</time></trkpt><trkpt lat="43.9012834" lon="12.8931472"><ele>5.666666666666667</ele><time>2026-03-24T18:57:15.705Z</time></trkpt><trkpt lat="43.901217" lon="12.8930949"><ele>6.0</ele><time>2026-03-24T18:57:18.705Z</time></trkpt><trkpt lat="43.9011516" lon="12.8930452"><ele>6.0</ele><time>2026-03-24T18:57:21.702Z</time></trkpt><trkpt lat="43.9010826" lon="12.892984"><ele>6.0</ele><time>2026-03-24T18:57:24.715Z</time></trkpt><trkpt lat="43.9010073" lon="12.8929318"><ele>6.0</ele><time>2026-03-24T18:57:27.699Z</time></trkpt><trkpt lat="43.9009455" lon="12.8928983"><ele>6.0</ele><time>2026-03-24T18:57:30.701Z</time></trkpt><trkpt lat="43.9008813" lon="12.892852"><ele>6.0</ele><time>2026-03-24T18:57:33.693Z</time></trkpt><trkpt lat="43.900808" lon="12.8928015"><ele>6.0</ele><time>2026-03-24T18:57:36.7Z</time></trkpt><trkpt lat="43.9007395" lon="12.8927599"><ele>6.166666666666667</ele><time>2026-03-24T18:57:39.705Z</time></trkpt><trkpt lat="43.9006607" lon="12.892735"><ele>6.333333333333334</ele><time>2026-03-24T18:57:42.699Z</time></trkpt><trkpt lat="43.900584" lon="12.8927319"><ele>6.5</ele><time>2026-03-24T18:57:45.698Z</time></trkpt><trkpt lat="43.9005004" lon="12.8927056"><ele>6.666666666666667</ele><time>2026-03-24T18:57:48.703Z</time></trkpt><trkpt lat="43.9004301" lon="12.8926687"><ele>6.833333333333334</ele><time>2026-03-24T18:57:51.702Z</time></trkpt><trkpt lat="43.9003568" lon="12.8926248"><ele>7.0</ele><time>2026-03-24T18:57:54.697Z</time></trkpt><trkpt lat="43.900289" lon="12.8925721"><ele>7.333333333333334</ele><time>2026-03-24T18:57:57.696Z</time></trkpt><trkpt lat="43.9002215" lon="12.8925373"><ele>7.666666666666667</ele><time>2026-03-24T18:58:00.701Z</time></trkpt><trkpt lat="43.9001455" lon="12.8925074"><ele>8.0</ele><time>2026-03-24T18:58:03.701Z</time></trkpt><trkpt lat="43.9000634" lon="12.8924802"><ele>8.333333333333334</ele><time>2026-03-24T18:58:06.691Z</time></trkpt><trkpt lat="43.8999808" lon="12.8924547"><ele>8.666666666666666</ele><time>2026-03-24T18:58:09.693Z</time></trkpt><trkpt lat="43.899905" lon="12.8924225"><ele>9.0</ele><time>2026-03-24T18:58:12.698Z</time></trkpt><trkpt lat="43.8998234" lon="12.892389"><ele>9.5</ele><time>2026-03-24T18:58:15.691Z</time></trkpt><trkpt lat="43.8997415" lon="12.8923687"><ele>10.0</ele><time>2026-03-24T18:58:18.697Z</time></trkpt><trkpt lat="43.8996888" lon="12.8923112"><ele>10.5</ele><time>2026-03-24T18:58:21.702Z</time></trkpt><trkpt lat="43.8996246" lon="12.8922543"><ele>11.0</ele><time>2026-03-24T18:58:24.698Z</time></trkpt><trkpt lat="43.8995538" lon="12.8922104"><ele>11.5</ele><time>2026-03-24T18:58:27.697Z</time></trkpt><trkpt lat="43.8994798" lon="12.8921571"><ele>12.0</ele><time>2026-03-24T18:58:31.699Z</time></trkpt><trkpt lat="43.8994084" lon="12.8921383"><ele>12.0</ele><time>2026-03-24T18:58:34.717Z</time></trkpt><trkpt lat="43.8993282" lon="12.8920879"><ele>12.0</ele><time>2026-03-24T18:58:37.697Z</time></trkpt><trkpt lat="43.8992474" lon="12.8920437"><ele>12.0</ele><time>2026-03-24T18:58:40.686Z</time></trkpt><trkpt lat="43.8991748" lon="12.8920076"><ele>12.0</ele><time>2026-03-24T18:58:44.682Z</time></trkpt><trkpt lat="43.8990826" lon="12.8919614"><ele>12.0</ele><time>2026-03-24T18:58:47.684Z</time></trkpt><trkpt lat="43.8990225" lon="12.891935"><ele>12.0</ele><time>2026-03-24T18:58:49.684Z</time></trkpt><trkpt lat="43.8989614" lon="12.8918986"><ele>11.666666666666666</ele><time>2026-03-24T18:58:51.689Z</time></trkpt><trkpt lat="43.8988784" lon="12.891859"><ele>11.333333333333334</ele><time>2026-03-24T18:58:54.684Z</time></trkpt><trkpt lat="43.8988013" lon="12.8918014"><ele>11.0</ele><time>2026-03-24T18:58:57.702Z</time></trkpt><trkpt lat="43.8987286" lon="12.8917449"><ele>10.666666666666668</ele><time>2026-03-24T18:59:00.68Z</time></trkpt><trkpt lat="43.8986617" lon="12.8916909"><ele>10.333333333333334</ele><time>2026-03-24T18:59:03.682Z</time></trkpt><trkpt lat="43.8985837" lon="12.8916513"><ele>10.0</ele><time>2026-03-24T18:59:06.69Z</time></trkpt><trkpt lat="43.8985162" lon="12.8915907"><ele>10.166666666666668</ele><time>2026-03-24T18:59:09.697Z</time></trkpt><trkpt lat="43.8984421" lon="12.8915121"><ele>10.333333333333334</ele><time>2026-03-24T18:59:12.693Z</time></trkpt><trkpt lat="43.8983973" lon="12.8914454"><ele>10.5</ele><time>2026-03-24T18:59:14.682Z</time></trkpt><trkpt lat="43.8983467" lon="12.8913536"><ele>10.666666666666666</ele><time>2026-03-24T18:59:17.689Z</time></trkpt><trkpt lat="43.8982941" lon="12.8912781"><ele>10.833333333333332</ele><time>2026-03-24T18:59:20.698Z</time></trkpt><trkpt lat="43.8982315" lon="12.8911958"><ele>11.0</ele><time>2026-03-24T18:59:23.693Z</time></trkpt><trkpt lat="43.8981756" lon="12.8911073"><ele>11.0</ele><time>2026-03-24T18:59:26.698Z</time></trkpt><trkpt lat="43.8981194" lon="12.8910251"><ele>11.0</ele><time>2026-03-24T18:59:29.704Z</time></trkpt><trkpt lat="43.8980702" lon="12.8909432"><ele>11.0</ele><time>2026-03-24T18:59:32.701Z</time></trkpt><trkpt lat="43.8980203" lon="12.8908506"><ele>11.0</ele><time>2026-03-24T18:59:36.705Z</time></trkpt><trkpt lat="43.8979755" lon="12.8907522"><ele>11.0</ele><time>2026-03-24T18:59:39.7Z</time></trkpt><trkpt lat="43.8979501" lon="12.8906596"><ele>11.0</ele><time>2026-03-24T18:59:42.697Z</time></trkpt><trkpt lat="43.8979256" lon="12.8905784"><ele>11.166666666666666</ele><time>2026-03-24T18:59:45.694Z</time></trkpt><trkpt lat="43.8978813" lon="12.8905081"><ele>11.333333333333332</ele><time>2026-03-24T18:59:49.682Z</time></trkpt><trkpt lat="43.8978501" lon="12.8904212"><ele>11.5</ele><time>2026-03-24T18:59:52.693Z</time></trkpt><trkpt lat="43.8978265" lon="12.8903317"><ele>11.666666666666666</ele><time>2026-03-24T18:59:54.694Z</time></trkpt><trkpt lat="43.8978046" lon="12.8902061"><ele>11.833333333333334</ele><time>2026-03-24T18:59:57.691Z</time></trkpt><trkpt lat="43.8977916" lon="12.8900901"><ele>12.0</ele><time>2026-03-24T19:00:00.688Z</time></trkpt><trkpt lat="43.8977717" lon="12.8899715"><ele>12.333333333333334</ele><time>2026-03-24T19:00:03.695Z</time></trkpt><trkpt lat="43.8977477" lon="12.8898635"><ele>12.666666666666668</ele><time>2026-03-24T19:00:06.705Z</time></trkpt><trkpt lat="43.897717" lon="12.8897498"><ele>13.0</ele><time>2026-03-24T19:00:09.7Z</time></trkpt><trkpt lat="43.8976922" lon="12.8896421"><ele>13.333333333333334</ele><time>2026-03-24T19:00:12.691Z</time></trkpt><trkpt lat="43.8976764" lon="12.8895237"><ele>13.666666666666668</ele><time>2026-03-24T19:00:15.689Z</time></trkpt><trkpt lat="43.8976627" lon="12.8894376"><ele>14.0</ele><time>2026-03-24T19:00:17.698Z</time></trkpt><trkpt lat="43.8976429" lon="12.8893156"><ele>13.833333333333334</ele><time>2026-03-24T19:00:20.697Z</time></trkpt><trkpt lat="43.8976277" lon="12.8892026"><ele>13.666666666666668</ele><time>2026-03-24T19:00:23.701Z</time></trkpt><trkpt lat="43.8976173" lon="12.8890905"><ele>13.5</ele><time>2026-03-24T19:00:26.68Z</time></trkpt><trkpt lat="43.8976142" lon="12.8889669"><ele>13.333333333333332</ele><time>2026-03-24T19:00:29.703Z</time></trkpt><trkpt lat="43.8976011" lon="12.8888398"><ele>13.166666666666666</ele><time>2026-03-24T19:00:32.697Z</time></trkpt><trkpt lat="43.8975667" lon="12.8887371"><ele>13.0</ele><time>2026-03-24T19:00:35.693Z</time></trkpt><trkpt lat="43.8975238" lon="12.8886539"><ele>12.999999999999998</ele><time>2026-03-24T19:00:38.69Z</time></trkpt><trkpt lat="43.8974825" lon="12.888559"><ele>13.0</ele><time>2026-03-24T19:00:41.698Z</time></trkpt><trkpt lat="43.8974423" lon="12.8884765"><ele>13.0</ele><time>2026-03-24T19:00:44.695Z</time></trkpt><trkpt lat="43.8973954" lon="12.8883844"><ele>13.0</ele><time>2026-03-24T19:00:47.707Z</time></trkpt><trkpt lat="43.8973507" lon="12.8882892"><ele>12.999999999999998</ele><time>2026-03-24T19:00:50.705Z</time></trkpt><trkpt lat="43.8973109" lon="12.8881837"><ele>13.0</ele><time>2026-03-24T19:00:53.697Z</time></trkpt><trkpt lat="43.8972724" lon="12.888085"><ele>13.166666666666666</ele><time>2026-03-24T19:00:56.694Z</time></trkpt><trkpt lat="43.8972344" lon="12.8880002"><ele>13.333333333333332</ele><time>2026-03-24T19:00:59.695Z</time></trkpt><trkpt lat="43.8971894" lon="12.8879249"><ele>13.5</ele><time>2026-03-24T19:01:02.701Z</time></trkpt><trkpt lat="43.8971358" lon="12.887835"><ele>13.666666666666668</ele><time>2026-03-24T19:01:05.705Z</time></trkpt><trkpt lat="43.8970829" lon="12.8877347"><ele>13.833333333333334</ele><time>2026-03-24T19:01:08.69Z</time></trkpt><trkpt lat="43.8970241" lon="12.8876368"><ele>14.0</ele><time>2026-03-24T19:01:11.699Z</time></trkpt><trkpt lat="43.8969857" lon="12.8875646"><ele>14.000000000000002</ele><time>2026-03-24T19:01:13.697Z</time></trkpt><trkpt lat="43.8969485" lon="12.887465"><ele>14.0</ele><time>2026-03-24T19:01:16.68Z</time></trkpt><trkpt lat="43.896899" lon="12.8873978"><ele>14.0</ele><time>2026-03-24T19:01:20.689Z</time></trkpt><trkpt lat="43.8968456" lon="12.8873139"><ele>14.0</ele><time>2026-03-24T19:01:23.693Z</time></trkpt><trkpt lat="43.8968031" lon="12.8872359"><ele>14.000000000000002</ele><time>2026-03-24T19:01:25.696Z</time></trkpt><trkpt lat="43.896757" lon="12.8871623"><ele>14.0</ele><time>2026-03-24T19:01:27.693Z</time></trkpt><trkpt lat="43.8967109" lon="12.8870606"><ele>13.666666666666668</ele><time>2026-03-24T19:01:30.694Z</time></trkpt><trkpt lat="43.8966667" lon="12.8869572"><ele>13.333333333333334</ele><time>2026-03-24T19:01:33.694Z</time></trkpt><trkpt lat="43.8966295" lon="12.8868757"><ele>13.0</ele><time>2026-03-24T19:01:35.694Z</time></trkpt><trkpt lat="43.8965926" lon="12.8867982"><ele>12.666666666666668</ele><time>2026-03-24T19:01:37.698Z</time></trkpt><trkpt lat="43.8965446" lon="12.8866942"><ele>12.333333333333334</ele><time>2026-03-24T19:01:40.704Z</time></trkpt><trkpt lat="43.8965021" lon="12.8866129"><ele>12.0</ele><time>2026-03-24T19:01:43.685Z</time></trkpt><trkpt lat="43.8964591" lon="12.8865249"><ele>12.0</ele><time>2026-03-24T19:01:46.697Z</time></trkpt><trkpt lat="43.8964212" lon="12.88644"><ele>12.0</ele><time>2026-03-24T19:01:49.699Z</time></trkpt><trkpt lat="43.8963844" lon="12.886338"><ele>12.0</ele><time>2026-03-24T19:01:52.702Z</time></trkpt><trkpt lat="43.8963478" lon="12.8862526"><ele>12.0</ele><time>2026-03-24T19:01:54.708Z</time></trkpt><trkpt lat="43.8963093" lon="12.8861461"><ele>12.0</ele><time>2026-03-24T19:01:57.709Z</time></trkpt><trkpt lat="43.8962967" lon="12.8860416"><ele>12.0</ele><time>2026-03-24T19:02:00.699Z</time></trkpt><trkpt lat="43.8962754" lon="12.8859504"><ele>12.0</ele><time>2026-03-24T19:02:03.71Z</time></trkpt><trkpt lat="43.8962154" lon="12.8858675"><ele>12.0</ele><time>2026-03-24T19:02:07.701Z</time></trkpt><trkpt lat="43.896145" lon="12.8858155"><ele>12.0</ele><time>2026-03-24T19:02:10.706Z</time></trkpt><trkpt lat="43.8960691" lon="12.8857711"><ele>12.0</ele><time>2026-03-24T19:02:13.706Z</time></trkpt><trkpt lat="43.8960051" lon="12.8857262"><ele>12.0</ele><time>2026-03-24T19:02:16.7Z</time></trkpt><trkpt lat="43.8959495" lon="12.8856677"><ele>12.0</ele><time>2026-03-24T19:02:19.703Z</time></trkpt><trkpt lat="43.8958931" lon="12.8855861"><ele>12.166666666666666</ele><time>2026-03-24T19:02:22.699Z</time></trkpt><trkpt lat="43.8958384" lon="12.8855095"><ele>12.333333333333332</ele><time>2026-03-24T19:02:25.702Z</time></trkpt><trkpt lat="43.8957832" lon="12.8854256"><ele>12.5</ele><time>2026-03-24T19:02:28.705Z</time></trkpt><trkpt lat="43.8957506" lon="12.885305"><ele>12.666666666666666</ele><time>2026-03-24T19:02:31.698Z</time></trkpt><trkpt lat="43.8957144" lon="12.8852307"><ele>12.833333333333332</ele><time>2026-03-24T19:02:33.718Z</time></trkpt><trkpt lat="43.895662" lon="12.8851434"><ele>13.0</ele><time>2026-03-24T19:02:36.7Z</time></trkpt><trkpt lat="43.8956273" lon="12.8850466"><ele>12.999999999999998</ele><time>2026-03-24T19:02:39.706Z</time></trkpt><trkpt lat="43.8955635" lon="12.8850232"><ele>13.0</ele><time>2026-03-24T19:02:42.707Z</time></trkpt><trkpt lat="43.8955046" lon="12.885084"><ele>13.0</ele><time>2026-03-24T19:02:44.71Z</time></trkpt><trkpt lat="43.8954439" lon="12.8851422"><ele>13.0</ele><time>2026-03-24T19:02:46.702Z</time></trkpt><trkpt lat="43.8953691" lon="12.8852152"><ele>12.999999999999998</ele><time>2026-03-24T19:02:49.708Z</time></trkpt><trkpt lat="43.8953075" lon="12.8852783"><ele>13.0</ele><time>2026-03-24T19:02:52.701Z</time></trkpt><trkpt lat="43.8952396" lon="12.8853357"><ele>12.999999999999998</ele><time>2026-03-24T19:02:55.709Z</time></trkpt><trkpt lat="43.8951734" lon="12.885398"><ele>13.0</ele><time>2026-03-24T19:02:58.693Z</time></trkpt><trkpt lat="43.8951075" lon="12.8854461"><ele>13.0</ele><time>2026-03-24T19:03:01.707Z</time></trkpt><trkpt lat="43.8950356" lon="12.8855066"><ele>13.0</ele><time>2026-03-24T19:03:04.725Z</time></trkpt><trkpt lat="43.8949599" lon="12.8855674"><ele>12.999999999999998</ele><time>2026-03-24T19:03:07.707Z</time></trkpt><trkpt lat="43.894886" lon="12.8856249"><ele>13.0</ele><time>2026-03-24T19:03:10.706Z</time></trkpt><trkpt lat="43.8948164" lon="12.8856932"><ele>12.999999999999998</ele><time>2026-03-24T19:03:13.705Z</time></trkpt><trkpt lat="43.8947729" lon="12.8857592"><ele>13.0</ele><time>2026-03-24T19:03:15.702Z</time></trkpt><trkpt lat="43.8946919" lon="12.885829"><ele>13.0</ele><time>2026-03-24T19:03:18.7Z</time></trkpt><trkpt lat="43.8946335" lon="12.8858781"><ele>13.0</ele><time>2026-03-24T19:03:20.714Z</time></trkpt><trkpt lat="43.8945644" lon="12.8859454"><ele>12.999999999999998</ele><time>2026-03-24T19:03:23.711Z</time></trkpt><trkpt lat="43.8944949" lon="12.8860182"><ele>13.0</ele><time>2026-03-24T19:03:26.71Z</time></trkpt><trkpt lat="43.8944293" lon="12.8860976"><ele>13.333333333333332</ele><time>2026-03-24T19:03:29.703Z</time></trkpt><trkpt lat="43.8943751" lon="12.8861905"><ele>13.666666666666666</ele><time>2026-03-24T19:03:32.7Z</time></trkpt><trkpt lat="43.8943187" lon="12.8862542"><ele>14.0</ele><time>2026-03-24T19:03:35.734Z</time></trkpt><trkpt lat="43.8942692" lon="12.8863378"><ele>14.333333333333332</ele><time>2026-03-24T19:03:38.701Z</time></trkpt><trkpt lat="43.8942562" lon="12.88645"><ele>14.666666666666666</ele><time>2026-03-24T19:03:41.702Z</time></trkpt><trkpt lat="43.8941824" lon="12.8864869"><ele>15.0</ele><time>2026-03-24T19:03:45.696Z</time></trkpt><trkpt lat="43.8941286" lon="12.8864393"><ele>15.0</ele><time>2026-03-24T19:03:48.703Z</time></trkpt><trkpt lat="43.8941013" lon="12.8863563"><ele>15.0</ele><time>2026-03-24T19:03:50.702Z</time></trkpt><trkpt lat="43.8940587" lon="12.8862572"><ele>15.0</ele><time>2026-03-24T19:03:53.7Z</time></trkpt><trkpt lat="43.8939763" lon="12.8862171"><ele>15.0</ele><time>2026-03-24T19:03:56.702Z</time></trkpt><trkpt lat="43.8938877" lon="12.8862531"><ele>15.0</ele><time>2026-03-24T19:03:59.71Z</time></trkpt><trkpt lat="43.8938349" lon="12.8863101"><ele>15.0</ele><time>2026-03-24T19:04:01.711Z</time></trkpt><trkpt lat="43.8937576" lon="12.8863898"><ele>15.0</ele><time>2026-03-24T19:04:04.722Z</time></trkpt><trkpt lat="43.8936875" lon="12.8864673"><ele>15.0</ele><time>2026-03-24T19:04:07.707Z</time></trkpt><trkpt lat="43.8936239" lon="12.8865386"><ele>15.0</ele><time>2026-03-24T19:04:10.714Z</time></trkpt><trkpt lat="43.893571" lon="12.886586"><ele>15.0</ele><time>2026-03-24T19:04:12.715Z</time></trkpt><trkpt lat="43.8934934" lon="12.8866546"><ele>15.0</ele><time>2026-03-24T19:04:15.713Z</time></trkpt><trkpt lat="43.8934207" lon="12.8867258"><ele>15.0</ele><time>2026-03-24T19:04:18.706Z</time></trkpt><trkpt lat="43.8933549" lon="12.8867877"><ele>14.666666666666666</ele><time>2026-03-24T19:04:21.706Z</time></trkpt><trkpt lat="43.8932903" lon="12.8868479"><ele>14.333333333333332</ele><time>2026-03-24T19:04:24.707Z</time></trkpt><trkpt lat="43.8932221" lon="12.8869195"><ele>14.0</ele><time>2026-03-24T19:04:27.708Z</time></trkpt><trkpt lat="43.8931736" lon="12.8869765"><ele>13.666666666666666</ele><time>2026-03-24T19:04:29.702Z</time></trkpt><trkpt lat="43.8931272" lon="12.8870362"><ele>13.333333333333332</ele><time>2026-03-24T19:04:31.709Z</time></trkpt><trkpt lat="43.8930733" lon="12.8871271"><ele>13.0</ele><time>2026-03-24T19:04:34.723Z</time></trkpt><trkpt lat="43.8930254" lon="12.8872095"><ele>12.999999999999998</ele><time>2026-03-24T19:04:37.71Z</time></trkpt><trkpt lat="43.8929777" lon="12.8872903"><ele>13.0</ele><time>2026-03-24T19:04:40.714Z</time></trkpt><trkpt lat="43.8929243" lon="12.8873745"><ele>13.0</ele><time>2026-03-24T19:04:43.702Z</time></trkpt><trkpt lat="43.8928691" lon="12.8874565"><ele>13.0</ele><time>2026-03-24T19:04:46.705Z</time></trkpt><trkpt lat="43.8928102" lon="12.8875304"><ele>12.999999999999998</ele><time>2026-03-24T19:04:49.706Z</time></trkpt><trkpt lat="43.892742" lon="12.887568"><ele>13.0</ele><time>2026-03-24T19:04:52.707Z</time></trkpt><trkpt lat="43.8926598" lon="12.8875376"><ele>12.999999999999998</ele><time>2026-03-24T19:04:55.712Z</time></trkpt><trkpt lat="43.8925708" lon="12.8875432"><ele>13.0</ele><time>2026-03-24T19:04:58.706Z</time></trkpt><trkpt lat="43.8925148" lon="12.8875865"><ele>13.0</ele><time>2026-03-24T19:05:00.699Z</time></trkpt><trkpt lat="43.8924567" lon="12.8876825"><ele>13.0</ele><time>2026-03-24T19:05:03.712Z</time></trkpt><trkpt lat="43.8924135" lon="12.8877916"><ele>12.999999999999998</ele><time>2026-03-24T19:05:06.705Z</time></trkpt><trkpt lat="43.8923567" lon="12.8878926"><ele>13.0</ele><time>2026-03-24T19:05:09.705Z</time></trkpt><trkpt lat="43.8923009" lon="12.8879853"><ele>12.999999999999998</ele><time>2026-03-24T19:05:12.709Z</time></trkpt><trkpt lat="43.8922586" lon="12.8880533"><ele>13.0</ele><time>2026-03-24T19:05:14.707Z</time></trkpt><trkpt lat="43.892203" lon="12.888144"><ele>13.0</ele><time>2026-03-24T19:05:17.702Z</time></trkpt><trkpt lat="43.892139" lon="12.8882158"><ele>13.0</ele><time>2026-03-24T19:05:20.7Z</time></trkpt><trkpt lat="43.8920764" lon="12.888277"><ele>12.999999999999998</ele><time>2026-03-24T19:05:23.706Z</time></trkpt><trkpt lat="43.8920156" lon="12.8883442"><ele>13.0</ele><time>2026-03-24T19:05:26.737Z</time></trkpt><trkpt lat="43.8919791" lon="12.8884329"><ele>12.666666666666666</ele><time>2026-03-24T19:05:29.692Z</time></trkpt><trkpt lat="43.8919522" lon="12.8885416"><ele>12.333333333333332</ele><time>2026-03-24T19:05:32.697Z</time></trkpt><trkpt lat="43.891937" lon="12.8886274"><ele>12.0</ele><time>2026-03-24T19:05:34.711Z</time></trkpt><trkpt lat="43.8919249" lon="12.888747"><ele>11.666666666666666</ele><time>2026-03-24T19:05:37.696Z</time></trkpt><trkpt lat="43.891934" lon="12.8888373"><ele>11.333333333333332</ele><time>2026-03-24T19:05:40.692Z</time></trkpt><trkpt lat="43.8918464" lon="12.8888781"><ele>11.0</ele><time>2026-03-24T19:05:44.698Z</time></trkpt><trkpt lat="43.8917847" lon="12.8889467"><ele>11.5</ele><time>2026-03-24T19:05:47.7Z</time></trkpt><trkpt lat="43.891699" lon="12.888939"><ele>12.0</ele><time>2026-03-24T19:05:52.698Z</time></trkpt><trkpt lat="43.891604" lon="12.8889242"><ele>12.5</ele><time>2026-03-24T19:05:55.699Z</time></trkpt><trkpt lat="43.8915418" lon="12.8889505"><ele>13.0</ele><time>2026-03-24T19:05:57.702Z</time></trkpt><trkpt lat="43.8914868" lon="12.8890008"><ele>13.500000000000002</ele><time>2026-03-24T19:05:59.69Z</time></trkpt><trkpt lat="43.8914468" lon="12.8891225"><ele>14.0</ele><time>2026-03-24T19:06:02.706Z</time></trkpt><trkpt lat="43.8914681" lon="12.8892261"><ele>13.666666666666668</ele><time>2026-03-24T19:06:04.717Z</time></trkpt><trkpt lat="43.8915008" lon="12.8893345"><ele>13.333333333333334</ele><time>2026-03-24T19:06:07.705Z</time></trkpt><trkpt lat="43.8915154" lon="12.889469"><ele>13.0</ele><time>2026-03-24T19:06:10.699Z</time></trkpt><trkpt lat="43.8915629" lon="12.8895635"><ele>12.666666666666668</ele><time>2026-03-24T19:06:12.697Z</time></trkpt><trkpt lat="43.8916252" lon="12.8896304"><ele>12.333333333333334</ele><time>2026-03-24T19:06:14.7Z</time></trkpt><trkpt lat="43.8916769" lon="12.8896865"><ele>12.0</ele><time>2026-03-24T19:06:16.701Z</time></trkpt><trkpt lat="43.8917516" lon="12.8897583"><ele>11.666666666666666</ele><time>2026-03-24T19:06:19.707Z</time></trkpt><trkpt lat="43.8918268" lon="12.8898352"><ele>11.333333333333334</ele><time>2026-03-24T19:06:22.701Z</time></trkpt><trkpt lat="43.8918972" lon="12.8899154"><ele>11.0</ele><time>2026-03-24T19:06:25.7Z</time></trkpt><trkpt lat="43.8919316" lon="12.8900209"><ele>10.666666666666668</ele><time>2026-03-24T19:06:28.694Z</time></trkpt><trkpt lat="43.8918921" lon="12.8901233"><ele>10.333333333333334</ele><time>2026-03-24T19:06:31.709Z</time></trkpt><trkpt lat="43.8918295" lon="12.8902107"><ele>10.0</ele><time>2026-03-24T19:06:34.719Z</time></trkpt><trkpt lat="43.8917748" lon="12.8903083"><ele>10.166666666666668</ele><time>2026-03-24T19:06:37.709Z</time></trkpt><trkpt lat="43.8917343" lon="12.8904061"><ele>10.333333333333334</ele><time>2026-03-24T19:06:40.717Z</time></trkpt><trkpt lat="43.8916939" lon="12.8904913"><ele>10.5</ele><time>2026-03-24T19:06:43.706Z</time></trkpt><trkpt lat="43.8916513" lon="12.8905846"><ele>10.666666666666666</ele><time>2026-03-24T19:06:46.706Z</time></trkpt><trkpt lat="43.8916059" lon="12.8906937"><ele>10.833333333333332</ele><time>2026-03-24T19:06:49.708Z</time></trkpt><trkpt lat="43.8915695" lon="12.8908046"><ele>11.0</ele><time>2026-03-24T19:06:52.702Z</time></trkpt><trkpt lat="43.8915354" lon="12.8909037"><ele>11.0</ele><time>2026-03-24T19:06:55.698Z</time></trkpt><trkpt lat="43.8914929" lon="12.8910041"><ele>11.0</ele><time>2026-03-24T19:06:58.705Z</time></trkpt><trkpt lat="43.8914564" lon="12.8911084"><ele>11.0</ele><time>2026-03-24T19:07:01.701Z</time></trkpt><trkpt lat="43.8914106" lon="12.8912132"><ele>11.0</ele><time>2026-03-24T19:07:04.724Z</time></trkpt><trkpt lat="43.8913755" lon="12.8912867"><ele>11.0</ele><time>2026-03-24T19:07:06.703Z</time></trkpt><trkpt lat="43.8913375" lon="12.8913923"><ele>11.0</ele><time>2026-03-24T19:07:09.713Z</time></trkpt><trkpt lat="43.8912929" lon="12.8915052"><ele>11.0</ele><time>2026-03-24T19:07:12.711Z</time></trkpt><trkpt lat="43.8912586" lon="12.8915825"><ele>11.0</ele><time>2026-03-24T19:07:14.707Z</time></trkpt><trkpt lat="43.8912297" lon="12.8916616"><ele>11.0</ele><time>2026-03-24T19:07:16.713Z</time></trkpt><trkpt lat="43.8911983" lon="12.8917402"><ele>11.0</ele><time>2026-03-24T19:07:18.712Z</time></trkpt><trkpt lat="43.8911714" lon="12.8918222"><ele>11.0</ele><time>2026-03-24T19:07:20.708Z</time></trkpt><trkpt lat="43.8911321" lon="12.8919283"><ele>11.0</ele><time>2026-03-24T19:07:23.707Z</time></trkpt><trkpt lat="43.8910904" lon="12.8920207"><ele>11.0</ele><time>2026-03-24T19:07:26.71Z</time></trkpt><trkpt lat="43.8910517" lon="12.8921244"><ele>11.0</ele><time>2026-03-24T19:07:29.704Z</time></trkpt><trkpt lat="43.8910159" lon="12.8922231"><ele>11.0</ele><time>2026-03-24T19:07:32.702Z</time></trkpt><trkpt lat="43.8909863" lon="12.8923132"><ele>11.0</ele><time>2026-03-24T19:07:35.702Z</time></trkpt><trkpt lat="43.8909981" lon="12.8924094"><ele>11.0</ele><time>2026-03-24T19:07:38.702Z</time></trkpt><trkpt lat="43.8910505" lon="12.8925023"><ele>11.0</ele><time>2026-03-24T19:07:41.702Z</time></trkpt><trkpt lat="43.8910961" lon="12.8925658"><ele>11.0</ele><time>2026-03-24T19:07:44.704Z</time></trkpt><trkpt lat="43.8911524" lon="12.8926497"><ele>11.0</ele><time>2026-03-24T19:07:47.705Z</time></trkpt><trkpt lat="43.8912147" lon="12.8927169"><ele>11.0</ele><time>2026-03-24T19:07:50.701Z</time></trkpt><trkpt lat="43.8912812" lon="12.8927987"><ele>11.0</ele><time>2026-03-24T19:07:53.693Z</time></trkpt><trkpt lat="43.8913469" lon="12.8928832"><ele>11.0</ele><time>2026-03-24T19:07:56.69Z</time></trkpt><trkpt lat="43.8914121" lon="12.892974"><ele>11.0</ele><time>2026-03-24T19:07:59.69Z</time></trkpt><trkpt lat="43.8914806" lon="12.8930638"><ele>11.0</ele><time>2026-03-24T19:08:02.693Z</time></trkpt><trkpt lat="43.8915408" lon="12.8931408"><ele>11.0</ele><time>2026-03-24T19:08:05.686Z</time></trkpt><trkpt lat="43.8916036" lon="12.8932121"><ele>11.0</ele><time>2026-03-24T19:08:08.68Z</time></trkpt><trkpt lat="43.8916492" lon="12.8932832"><ele>11.0</ele><time>2026-03-24T19:08:11.678Z</time></trkpt><trkpt lat="43.8917117" lon="12.8933661"><ele>11.0</ele><time>2026-03-24T19:08:14.689Z</time></trkpt><trkpt lat="43.8917749" lon="12.8934498"><ele>11.0</ele><time>2026-03-24T19:08:17.692Z</time></trkpt><trkpt lat="43.8918494" lon="12.8935123"><ele>11.0</ele><time>2026-03-24T19:08:20.693Z</time></trkpt><trkpt lat="43.8919055" lon="12.8935795"><ele>10.714285714285715</ele><time>2026-03-24T19:08:23.686Z</time></trkpt><trkpt lat="43.8919682" lon="12.893667"><ele>10.428571428571429</ele><time>2026-03-24T19:08:26.693Z</time></trkpt><trkpt lat="43.892012" lon="12.8937406"><ele>10.142857142857142</ele><time>2026-03-24T19:08:28.687Z</time></trkpt><trkpt lat="43.8920489" lon="12.8938142"><ele>9.857142857142858</ele><time>2026-03-24T19:08:30.688Z</time></trkpt><trkpt lat="43.8920994" lon="12.8938885"><ele>9.571428571428571</ele><time>2026-03-24T19:08:33.695Z</time></trkpt><trkpt lat="43.892141" lon="12.8939766"><ele>9.285714285714286</ele><time>2026-03-24T19:08:36.695Z</time></trkpt><trkpt lat="43.8921755" lon="12.8940528"><ele>9.0</ele><time>2026-03-24T19:08:38.697Z</time></trkpt><trkpt lat="43.8922269" lon="12.8941354"><ele>9.0</ele><time>2026-03-24T19:08:41.699Z</time></trkpt><trkpt lat="43.8922883" lon="12.8942125"><ele>9.0</ele><time>2026-03-24T19:08:44.691Z</time></trkpt><trkpt lat="43.8923438" lon="12.8942552"><ele>9.0</ele><time>2026-03-24T19:08:46.69Z</time></trkpt><trkpt lat="43.892388" lon="12.8943242"><ele>9.0</ele><time>2026-03-24T19:08:48.695Z</time></trkpt><trkpt lat="43.8924402" lon="12.8943839"><ele>9.0</ele><time>2026-03-24T19:08:50.698Z</time></trkpt><trkpt lat="43.8925075" lon="12.8944599"><ele>9.0</ele><time>2026-03-24T19:08:53.691Z</time></trkpt><trkpt lat="43.8925779" lon="12.894538"><ele>8.666666666666666</ele><time>2026-03-24T19:08:56.686Z</time></trkpt><trkpt lat="43.8926538" lon="12.8946097"><ele>8.333333333333334</ele><time>2026-03-24T19:08:59.695Z</time></trkpt><trkpt lat="43.8927225" lon="12.8946931"><ele>8.0</ele><time>2026-03-24T19:09:02.694Z</time></trkpt><trkpt lat="43.8927728" lon="12.8947521"><ele>7.666666666666667</ele><time>2026-03-24T19:09:04.715Z</time></trkpt><trkpt lat="43.8928275" lon="12.8948122"><ele>7.333333333333334</ele><time>2026-03-24T19:09:06.679Z</time></trkpt><trkpt lat="43.8928762" lon="12.8948746"><ele>7.0</ele><time>2026-03-24T19:09:08.674Z</time></trkpt><trkpt lat="43.8929361" lon="12.8949698"><ele>7.000000000000001</ele><time>2026-03-24T19:09:11.683Z</time></trkpt><trkpt lat="43.8929924" lon="12.8950733"><ele>7.0</ele><time>2026-03-24T19:09:14.711Z</time></trkpt><trkpt lat="43.8930474" lon="12.8951567"><ele>7.0</ele><time>2026-03-24T19:09:17.693Z</time></trkpt><trkpt lat="43.8931016" lon="12.8952156"><ele>7.0</ele><time>2026-03-24T19:09:20.69Z</time></trkpt><trkpt lat="43.8931509" lon="12.8952904"><ele>7.000000000000001</ele><time>2026-03-24T19:09:23.695Z</time></trkpt><trkpt lat="43.893217" lon="12.8953797"><ele>7.0</ele><time>2026-03-24T19:09:26.686Z</time></trkpt><trkpt lat="43.8932857" lon="12.8954673"><ele>7.166666666666667</ele><time>2026-03-24T19:09:29.695Z</time></trkpt><trkpt lat="43.8933373" lon="12.8955215"><ele>7.333333333333334</ele><time>2026-03-24T19:09:31.692Z</time></trkpt><trkpt lat="43.8933972" lon="12.8956146"><ele>7.5</ele><time>2026-03-24T19:09:34.712Z</time></trkpt><trkpt lat="43.893457" lon="12.8956856"><ele>7.666666666666666</ele><time>2026-03-24T19:09:37.689Z</time></trkpt><trkpt lat="43.8935148" lon="12.895751"><ele>7.833333333333333</ele><time>2026-03-24T19:09:40.696Z</time></trkpt><trkpt lat="43.8935639" lon="12.8958415"><ele>8.0</ele><time>2026-03-24T19:09:43.697Z</time></trkpt><trkpt lat="43.8936055" lon="12.8959103"><ele>7.999999999999999</ele><time>2026-03-24T19:09:45.712Z</time></trkpt><trkpt lat="43.8936489" lon="12.8959805"><ele>8.0</ele><time>2026-03-24T19:09:47.691Z</time></trkpt><trkpt lat="43.8936971" lon="12.8960418"><ele>8.0</ele><time>2026-03-24T19:09:49.697Z</time></trkpt><trkpt lat="43.8936674" lon="12.8961563"><ele>8.0</ele><time>2026-03-24T19:09:53.692Z</time></trkpt><trkpt lat="43.8936159" lon="12.896232"><ele>7.999999999999999</ele><time>2026-03-24T19:09:55.702Z</time></trkpt><trkpt lat="43.8935451" lon="12.8963156"><ele>8.0</ele><time>2026-03-24T19:09:58.701Z</time></trkpt><trkpt lat="43.8934815" lon="12.8963952"><ele>8.166666666666666</ele><time>2026-03-24T19:10:01.696Z</time></trkpt><trkpt lat="43.8934156" lon="12.8964773"><ele>8.333333333333332</ele><time>2026-03-24T19:10:04.699Z</time></trkpt><trkpt lat="43.8933516" lon="12.8965391"><ele>8.5</ele><time>2026-03-24T19:10:07.695Z</time></trkpt><trkpt lat="43.8932975" lon="12.8966185"><ele>8.666666666666666</ele><time>2026-03-24T19:10:10.698Z</time></trkpt><trkpt lat="43.8932463" lon="12.8967028"><ele>8.833333333333334</ele><time>2026-03-24T19:10:13.686Z</time></trkpt><trkpt lat="43.8931898" lon="12.8967953"><ele>9.0</ele><time>2026-03-24T19:10:16.712Z</time></trkpt><trkpt lat="43.8931473" lon="12.8968599"><ele>9.0</ele><time>2026-03-24T19:10:19.699Z</time></trkpt><trkpt lat="43.8930891" lon="12.896952"><ele>9.0</ele><time>2026-03-24T19:10:22.702Z</time></trkpt><trkpt lat="43.8930441" lon="12.8970182"><ele>9.0</ele><time>2026-03-24T19:10:24.702Z</time></trkpt><trkpt lat="43.8929798" lon="12.8970997"><ele>9.0</ele><time>2026-03-24T19:10:27.695Z</time></trkpt><trkpt lat="43.892927" lon="12.8971768"><ele>9.0</ele><time>2026-03-24T19:10:30.699Z</time></trkpt><trkpt lat="43.8928774" lon="12.8972659"><ele>9.0</ele><time>2026-03-24T19:10:33.708Z</time></trkpt><trkpt lat="43.8928124" lon="12.8973535"><ele>9.000000000000002</ele><time>2026-03-24T19:10:36.707Z</time></trkpt><trkpt lat="43.8927504" lon="12.8974266"><ele>9.0</ele><time>2026-03-24T19:10:39.708Z</time></trkpt><trkpt lat="43.8926993" lon="12.8974914"><ele>9.0</ele><time>2026-03-24T19:10:42.712Z</time></trkpt><trkpt lat="43.8926559" lon="12.8975593"><ele>9.0</ele><time>2026-03-24T19:10:45.692Z</time></trkpt><trkpt lat="43.8925946" lon="12.8976365"><ele>9.0</ele><time>2026-03-24T19:10:48.694Z</time></trkpt><trkpt lat="43.8925447" lon="12.8976923"><ele>9.000000000000002</ele><time>2026-03-24T19:10:50.698Z</time></trkpt><trkpt lat="43.8924932" lon="12.8977433"><ele>9.0</ele><time>2026-03-24T19:10:52.702Z</time></trkpt><trkpt lat="43.892434" lon="12.8977968"><ele>9.666666666666666</ele><time>2026-03-24T19:10:54.697Z</time></trkpt><trkpt lat="43.8923807" lon="12.8978742"><ele>10.333333333333332</ele><time>2026-03-24T19:10:57.695Z</time></trkpt><trkpt lat="43.892329" lon="12.897955"><ele>11.0</ele><time>2026-03-24T19:11:00.693Z</time></trkpt><trkpt lat="43.8922624" lon="12.8980376"><ele>11.666666666666666</ele><time>2026-03-24T19:11:03.7Z</time></trkpt><trkpt lat="43.8922069" lon="12.8981039"><ele>12.333333333333332</ele><time>2026-03-24T19:11:06.701Z</time></trkpt><trkpt lat="43.8921571" lon="12.8981898"><ele>13.0</ele><time>2026-03-24T19:11:10.699Z</time></trkpt><trkpt lat="43.8921179" lon="12.8982966"><ele>12.999999999999998</ele><time>2026-03-24T19:11:13.703Z</time></trkpt><trkpt lat="43.8920791" lon="12.898412"><ele>13.0</ele><time>2026-03-24T19:11:16.701Z</time></trkpt><trkpt lat="43.8920464" lon="12.8984921"><ele>13.0</ele><time>2026-03-24T19:11:18.719Z</time></trkpt><trkpt lat="43.8920042" lon="12.8986109"><ele>13.0</ele><time>2026-03-24T19:11:21.697Z</time></trkpt><trkpt lat="43.8919553" lon="12.8987094"><ele>12.999999999999998</ele><time>2026-03-24T19:11:24.703Z</time></trkpt><trkpt lat="43.8919069" lon="12.8987847"><ele>13.0</ele><time>2026-03-24T19:11:27.697Z</time></trkpt><trkpt lat="43.8918601" lon="12.898876"><ele>12.999999999999998</ele><time>2026-03-24T19:11:30.701Z</time></trkpt><trkpt lat="43.8918288" lon="12.89896"><ele>13.0</ele><time>2026-03-24T19:11:33.698Z</time></trkpt><trkpt lat="43.8918399" lon="12.8990549"><ele>13.0</ele><time>2026-03-24T19:11:38.698Z</time></trkpt><trkpt lat="43.8918802" lon="12.8991387"><ele>13.0</ele><time>2026-03-24T19:11:41.692Z</time></trkpt><trkpt lat="43.8919387" lon="12.8992248"><ele>12.999999999999998</ele><time>2026-03-24T19:11:44.693Z</time></trkpt><trkpt lat="43.8919444" lon="12.8993358"><ele>13.0</ele><time>2026-03-24T19:11:47.696Z</time></trkpt><trkpt lat="43.8919394" lon="12.8994474"><ele>12.666666666666666</ele><time>2026-03-24T19:11:50.701Z</time></trkpt><trkpt lat="43.89193" lon="12.8995599"><ele>12.333333333333332</ele><time>2026-03-24T19:11:53.704Z</time></trkpt><trkpt lat="43.8919235" lon="12.8996798"><ele>12.0</ele><time>2026-03-24T19:11:56.696Z</time></trkpt><trkpt lat="43.8919254" lon="12.8998096"><ele>11.666666666666666</ele><time>2026-03-24T19:11:59.703Z</time></trkpt><trkpt lat="43.8919263" lon="12.8998992"><ele>11.333333333333332</ele><time>2026-03-24T19:12:01.703Z</time></trkpt><trkpt lat="43.8919256" lon="12.8999911"><ele>11.0</ele><time>2026-03-24T19:12:03.702Z</time></trkpt><trkpt lat="43.8919093" lon="12.9000828"><ele>10.833333333333332</ele><time>2026-03-24T19:12:05.708Z</time></trkpt><trkpt lat="43.8918906" lon="12.9001853"><ele>10.666666666666666</ele><time>2026-03-24T19:12:07.694Z</time></trkpt><trkpt lat="43.8918761" lon="12.9002899"><ele>10.5</ele><time>2026-03-24T19:12:09.699Z</time></trkpt><trkpt lat="43.8918619" lon="12.9003939"><ele>10.333333333333334</ele><time>2026-03-24T19:12:11.696Z</time></trkpt><trkpt lat="43.8918554" lon="12.9005238"><ele>10.166666666666668</ele><time>2026-03-24T19:12:14.699Z</time></trkpt><trkpt lat="43.891855" lon="12.9006166"><ele>10.0</ele><time>2026-03-24T19:12:16.695Z</time></trkpt><trkpt lat="43.8918513" lon="12.9007142"><ele>10.0</ele><time>2026-03-24T19:12:18.698Z</time></trkpt><trkpt lat="43.8918477" lon="12.9008103"><ele>10.0</ele><time>2026-03-24T19:12:20.695Z</time></trkpt><trkpt lat="43.8918418" lon="12.900942"><ele>10.0</ele><time>2026-03-24T19:12:23.699Z</time></trkpt><trkpt lat="43.8918263" lon="12.9010312"><ele>10.0</ele><time>2026-03-24T19:12:25.703Z</time></trkpt><trkpt lat="43.891809" lon="12.901147"><ele>10.0</ele><time>2026-03-24T19:12:28.691Z</time></trkpt><trkpt lat="43.8917682" lon="12.9012151"><ele>10.0</ele><time>2026-03-24T19:12:30.698Z</time></trkpt><trkpt lat="43.8917119" lon="12.9012767"><ele>10.0</ele><time>2026-03-24T19:12:32.698Z</time></trkpt><trkpt lat="43.8916496" lon="12.9013286"><ele>10.0</ele><time>2026-03-24T19:12:34.708Z</time></trkpt><trkpt lat="43.8915892" lon="12.9013598"><ele>10.0</ele><time>2026-03-24T19:12:36.697Z</time></trkpt><trkpt lat="43.8915031" lon="12.9014083"><ele>10.0</ele><time>2026-03-24T19:12:39.683Z</time></trkpt><trkpt lat="43.8914434" lon="12.9014442"><ele>10.0</ele><time>2026-03-24T19:12:41.694Z</time></trkpt><trkpt lat="43.8913511" lon="12.9014589"><ele>10.0</ele><time>2026-03-24T19:12:44.689Z</time></trkpt><trkpt lat="43.8912866" lon="12.9014205"><ele>10.0</ele><time>2026-03-24T19:12:46.687Z</time></trkpt><trkpt lat="43.8912347" lon="12.9013448"><ele>10.0</ele><time>2026-03-24T19:12:48.697Z</time></trkpt><trkpt lat="43.8911988" lon="12.9012655"><ele>10.0</ele><time>2026-03-24T19:12:50.713Z</time></trkpt><trkpt lat="43.891167" lon="12.9011865"><ele>10.0</ele><time>2026-03-24T19:12:52.705Z</time></trkpt><trkpt lat="43.8911273" lon="12.901108"><ele>10.0</ele><time>2026-03-24T19:12:54.699Z</time></trkpt><trkpt lat="43.8910912" lon="12.9010347"><ele>10.0</ele><time>2026-03-24T19:12:56.699Z</time></trkpt><trkpt lat="43.8910451" lon="12.9009384"><ele>10.0</ele><time>2026-03-24T19:12:59.694Z</time></trkpt><trkpt lat="43.8909881" lon="12.9008397"><ele>9.0</ele><time>2026-03-24T19:13:02.704Z</time></trkpt><trkpt lat="43.8909469" lon="12.9007701"><ele>9.0</ele><time>2026-03-24T19:13:04.713Z</time></trkpt><trkpt lat="43.8909009" lon="12.9007087"><ele>9.0</ele><time>2026-03-24T19:13:06.699Z</time></trkpt><trkpt lat="43.8908375" lon="12.9006178"><ele>9.0</ele><time>2026-03-24T19:13:09.696Z</time></trkpt><trkpt lat="43.8907911" lon="12.9005551"><ele>9.0</ele><time>2026-03-24T19:13:11.69Z</time></trkpt></trkseg></trk></gpx>